Flight Track Log - Related Links

Times and Time Zones

All times are in EDT time to prevent confusion due to time zone crossing. See the DAL268 flight status page for this flight to view local times or setup timezone preferences in your user account.

Time Position Orientation Groundspeed Altitude Reporting Facility
EDT Latitude Longitude Course Direction KTS MPH feet Rate Location/Type
Sun 09:56:06 PM 40.6430 -73.8060 143° Southeast 115 132  Level FlightAware ADS-B
Sun 09:56:26 PM 40.6360 -73.7890 118° Southeast 212 244 500 Level FlightAware ADS-B
Sun 09:56:54 PM 40.6220 -73.7660 129° Southeast 175 201 400 1,125 Climbing FlightAware ADS-B
Sun 09:57:14 PM 40.6090 -73.7550 147° Southeast 182 209 900 1,171 Climbing FlightAware ADS-B
Sun 09:57:35 PM 40.5930 -73.7410 146° Southeast 201 231 1,200 900 Climbing FlightAware ADS-B
Sun 09:57:54 PM 40.5780 -73.7270 145° Southeast 219 252 1,500 1,111 Climbing FlightAware ADS-B
Sun 09:58:02 PM 40.5720 -73.7190 135° Southeast 222 255 1,700 1,125 Climbing FlightAware ADS-B
Sun 09:58:10 PM 40.5680 -73.7100 120° Southeast 225 259 1,800 1,000 Climbing FlightAware ADS-B
Sun 09:58:14 PM 40.5660 -73.7030 111° Southeast 228 262 1,900 1,000 Climbing FlightAware ADS-B
Sun 09:58:22 PM 40.5640 -73.6920 103° East 237 273 2,000 1,286 Climbing FlightAware ADS-B
Sun 09:58:42 PM 40.5600 -73.6640 101° East 253 291 2,500 1,696 Climbing FlightAware ADS-B
Sun 09:59:08 PM 40.5570 -73.6230 95° East 267 307 3,300 2,000 Climbing FlightAware ADS-B
Sun 09:59:27 PM 40.5550 -73.5910 95° East 280 322 4,000 2,400 Climbing FlightAware ADS-B
Sun 09:59:48 PM 40.5510 -73.5540 98° East 286 329 4,900 2,455 Climbing FlightAware ADS-B
Sun 10:00:11 PM 40.5470 -73.5150 98° East 293 337 5,800 2,400 Climbing FlightAware ADS-B
Sun 10:00:33 PM 40.5430 -73.4760 98° East 297 342 6,700 2,429 Climbing FlightAware ADS-B
Sun 10:00:53 PM 40.5340 -73.4410 109° East 306 352 7,500 2,250 Climbing FlightAware ADS-B
Sun 10:01:13 PM 40.5230 -73.4070 113° Southeast 311 358 8,200 2,154 Climbing FlightAware ADS-B
Sun 10:01:32 PM 40.5120 -73.3730 113° Southeast 317 365 8,900 2,182 Climbing FlightAware ADS-B
Sun 10:01:57 PM 40.4970 -73.3280 114° Southeast 325 374 9,800 1,607 Climbing FlightAware ADS-B
Sun 10:02:28 PM 40.4790 -73.2700 112° Southeast 348 400 10,400 1,343 Climbing FlightAware ADS-B
Sun 10:03:04 PM 40.4550 -73.1940 113° Southeast 377 434 11,300 1,300 Climbing FlightAware ADS-B
Sun 10:03:28 PM 40.4385 -73.1415 112° Southeast 398 458 11,700 1,500 Climbing FlightAware ADS-B (KSNC)
Sun 10:03:56 PM 40.4258 -73.0749 104° East 409 471 12,600 1,932 Climbing FlightAware ADS-B (KSNC)
Sun 10:04:27 PM 40.4328 -73.0003 83° East 417 480 13,600 1,714 Climbing FlightAware ADS-B (KSNC)
Sun 10:04:59 PM 40.4531 -72.9199 72° East 431 496 14,400 1,905 Climbing FlightAware ADS-B (KSNC)
Sun 10:05:30 PM 40.4725 -72.8456 71° East 433 498 15,600 2,083 Climbing FlightAware ADS-B (KSNC)
Sun 10:06:11 PM 40.4950 -72.7408 74° East 441 507 16,900 1,775 Climbing FlightAware ADS-B (KSNC)
Sun 10:06:41 PM 40.5116 -72.6596 75° East 449 517 17,700 1,770 Climbing FlightAware ADS-B (KSNC)
Sun 10:07:12 PM 40.5281 -72.5777 75° East 452 520 18,700 1,770 Climbing FlightAware ADS-B (KSNC)
Sun 10:07:42 PM 40.5438 -72.4973 76° East 457 526 19,500 1,543 Climbing FlightAware ADS-B (KSNC)
Sun 10:08:22 PM 40.5650 -72.3887 75° East 465 535 20,500 1,457 Climbing FlightAware ADS-B (KSNC)
Sun 10:08:52 PM 40.5815 -72.3090 75° East 471 542 21,200 1,412 Climbing FlightAware ADS-B (KSNC)
Sun 10:09:47 PM 40.6100 -72.1690 75° East 479 551 22,500 1,467 Climbing FlightAware ADS-B
Sun 10:10:22 PM 40.6310 -72.0620 75° East 482 555 23,400 1,520 Climbing FlightAware ADS-B
Sun 10:11:02 PM 40.6530 -71.9540 75° East 485 558 24,400 1,500 Climbing FlightAware ADS-B
Sun 10:11:30 PM 40.6349 -72.0450 255° West 482 555 25,100 1,286 Climbing FlightAware ADS-B (KSNC)
Sun 10:12:12 PM 40.6940 -71.7470 75° East 492 566 25,900 1,167 Climbing FlightAware ADS-B
Sun 10:12:42 PM 40.7110 -71.6630 75° East 487 560 26,500 720 Climbing FlightAware ADS-B
Sun 10:13:27 PM 40.7330 -71.5490 76° East 487 560 26,800 960 Climbing FlightAware ADS-B
Sun 10:13:57 PM 40.7540 -71.4410 76° East 499 574 27,700 1,000 Climbing FlightAware ADS-B
Sun 10:14:51 PM 40.7820 -71.2940 76° East 507 583 28,200 333 Climbing FlightAware ADS-B
Sun 10:15:27 PM 40.8000 -71.2020 75° East 507 583 28,200 1,324 Level FlightAware ADS-B
Sun 10:15:59 PM 40.8210 -71.0900 76° East 501 577 29,700 1,324 Climbing FlightAware ADS-B
Sun 10:16:35 PM 40.8380 -70.9990 76° East 501 577 29,700  Level FlightAware ADS-B
Sun 10:17:11 PM 40.8560 -70.9080 75° East 501 577 29,700 634 Level FlightAware ADS-B
Sun 10:18:38 PM 40.9100 -70.6000 75° East 497 572 31,000 534 Climbing Boston Center
Sun 10:19:37 PM 40.9467 -70.4314 74° East 486 559 31,000  Level Boston Center
Sun 10:20:38 PM 40.9786 -70.2461 77° East 491 565 31,000  Level Boston Center
Sun 10:21:39 PM 41.0103 -70.0661 77° East 496 571 31,000  Level Boston Center
Sun 10:22:37 PM 41.0439 -69.8889 76° East 491 565 31,000  Level Boston Center
Sun 10:23:37 PM 41.0794 -69.7083 75° East 491 565 31,000  Level Boston Center
Sun 10:24:37 PM 41.1250 -69.5356 71° East 491 565 31,000  Level Boston Center
Sun 10:30:22 PM 41.3986 -68.5183 71° East 502 578 31,000  Level FlightAware ADS-B
Sun 10:30:57 PM 41.4246 -68.4191 71° East 503 579 31,000  Level FlightAware ADS-B
Sun 10:31:32 PM 41.4503 -68.3223 70° East 504 580 31,000  Level FlightAware ADS-B
Sun 10:37:41 PM 41.7288 -67.2234 71° East 508 585 31,000  Level FlightAware ADS-B
Sun 10:38:21 PM 41.7583 -67.1042 72° East 507 583 31,000  Level FlightAware ADS-B
Sun 10:38:52 PM 41.7812 -67.0089 72° East 507 583 31,000  Level FlightAware ADS-B
Sun 10:39:46 PM 41.8234 -66.8522 70° East 507 583 31,000  Level FlightAware ADS-B
Sun 10:40:16 PM 41.8487 -66.7610 70° East 507 583 31,000  Level FlightAware ADS-B
Sun 10:40:51 PM 41.8762 -66.6610 70° East 507 583 31,000  Level FlightAware ADS-B
Sun 10:41:26 PM 41.9047 -66.5576 70° East 506 582 31,000  Level FlightAware ADS-B
Sun 10:41:56 PM 41.9252 -66.4813 70° East 506 582 31,000  Level FlightAware ADS-B
Sun 10:42:26 PM 41.9523 -66.3780 71° East 505 581 31,000  Level FlightAware ADS-B
Sun 10:42:59 PM 41.9776 -66.2833 70° East 506 582 31,000 667 Level FlightAware ADS-B
Sun 10:43:47 PM 42.0108 -66.1588 70° East 506 582 31,900 1,055 Climbing FlightAware ADS-B
Sun 10:44:30 PM 42.0442 -66.0313 71° East 506 582 32,600 846 Climbing FlightAware ADS-B
Sun 10:45:05 PM 42.0763 -65.9096 70° East 507 583 33,000 369 Climbing FlightAware ADS-B
Sun 10:45:35 PM 42.1006 -65.8175 70° East 507 583 33,000  Level FlightAware ADS-B
Sun 10:46:09 PM 42.1267 -65.7165 71° East 505 581 33,000  Level FlightAware ADS-B
Sun 10:46:40 PM 42.1502 -65.6274 70° East 505 581 33,000  Level FlightAware ADS-B
Sun 10:47:21 PM 42.1817 -65.5056 71° East 506 582 33,000  Level FlightAware ADS-B
Sun 10:48:01 PM 42.2129 -65.3834 71° East 507 583 33,000  Level FlightAware ADS-B
Sun 10:48:40 PM 42.2422 -65.2702 71° East 507 583 33,000  Level FlightAware ADS-B
Sun 10:49:12 PM 42.2673 -65.1715 71° East 506 582 33,000  Level FlightAware ADS-B
Sun 10:50:03 PM 42.3054 -65.0221 71° East 507 583 33,000  Level FlightAware ADS-B
Sun 10:50:42 PM 42.3340 -64.9084 71° East 507 583 33,000  Level FlightAware ADS-B
Sun 10:51:13 PM 42.3586 -64.8095 71° East 507 583 33,000  Level FlightAware ADS-B
Sun 10:51:43 PM 42.3813 -64.7196 71° East 506 582 33,000  Level FlightAware ADS-B
Sun 10:52:17 PM 42.4056 -64.6208 72° East 506 582 33,000  Level FlightAware ADS-B
Sun 10:53:10 PM 42.4461 -64.4589 71° East 506 582 33,000  Level FlightAware ADS-B
Sun 10:53:44 PM 42.4707 -64.3596 71° East 507 583 33,000  Level FlightAware ADS-B
Sun 10:54:14 PM 42.4933 -64.2666 72° East 506 582 33,000  Level FlightAware ADS-B
Sun 10:55:07 PM 42.5247 -64.1375 72° East 505 581 33,000  Level FlightAware ADS-B
Sun 10:55:55 PM 42.5666 -63.9660 72° East 505 581 33,000  Level FlightAware ADS-B
Sun 10:56:25 PM 42.5888 -63.8729 72° East 505 581 33,000  Level FlightAware ADS-B
Sun 10:56:56 PM 42.6108 -63.7829 72° East 504 580 33,000  Level FlightAware ADS-B
Sun 10:57:27 PM 42.6331 -63.6899 72° East 504 580 33,000  Level FlightAware ADS-B
Sun 10:58:51 PM 42.6833 -63.4500 72° East 500 575 33,000  Level Moncton Center
Sun 10:59:51 PM 42.7333 -63.2333 72° East 500 575 33,000  Level Moncton Center
Sun 11:00:51 PM 42.7667 -63.0833 73° East 500 575 33,000  Level Moncton Center
Sun 11:01:51 PM 42.8000 -62.8667 78° East 510 587 33,000  Level Moncton Center
Sun 11:02:51 PM 42.8333 -62.7167 73° East 500 575 33,000  Level Moncton Center
Sun 11:03:51 PM 42.8833 -62.5000 72° East 500 575 33,000  Level Moncton Center
Sun 11:04:51 PM 42.9333 -62.3500 65° Northeast 500 575 33,000  Level Moncton Center
Sun 11:05:51 PM 42.9667 -62.1667 76° East 500 575 33,000  Level Moncton Center
Sun 11:06:51 PM 43.0000 -61.9833 76° East 500 575 33,000  Level Moncton Center
Sun 11:07:51 PM 43.0500 -61.7833 71° East 500 575 33,000  Level Moncton Center
Sun 11:08:51 PM 43.0833 -61.6000 76° East 500 575 33,000  Level Moncton Center
Sun 11:09:51 PM 43.1333 -61.4167 69° East 500 575 33,000  Level Moncton Center
Sun 11:10:51 PM 43.1667 -61.2333 76° East 500 575 33,000  Level Moncton Center
Sun 11:11:51 PM 43.2000 -61.0500 76° East 500 575 33,000  Level Moncton Center
Sun 11:12:51 PM 43.2500 -60.8667 69° East 500 575 33,000  Level Moncton Center
Sun 11:13:51 PM 43.2833 -60.7000 75° East 500 575 33,000  Level Moncton Center
Sun 11:14:51 PM 43.3167 -60.5167 76° East 500 575 33,000  Level Moncton Center
Sun 11:15:51 PM 43.3667 -60.3333 69° East 500 575 33,000  Level Moncton Center
Sun 11:16:32 PM 43.3833 -60.2000 80° East 490 564 33,000  Level Gander Center
Sun 11:17:32 PM 43.4167 -60.0167 76° East 500 575 33,000  Level Gander Center
Sun 11:18:32 PM 43.4500 -59.8333 76° East 500 575 33,000  Level Gander Center
Sun 11:19:32 PM 43.5000 -59.6500 69° East 500 575 33,000  Level Gander Center
Sun 11:20:32 PM 43.5333 -59.4667 76° East 500 575 33,000  Level Gander Center
Sun 11:21:32 PM 43.5667 -59.2833 76° East 500 575 33,000  Level Gander Center
Sun 11:22:32 PM 43.6000 -59.1000 76° East 500 575 33,000  Level Gander Center
Sun 11:23:32 PM 43.6333 -58.9167 76° East 500 575 33,000  Level Gander Center
Sun 11:24:32 PM 43.6833 -58.7333 69° East 490 564 33,000  Level Gander Center
Sun 11:25:32 PM 43.7167 -58.5333 77° East 500 575 33,000 150 Level Gander Center
Sun 11:26:32 PM 43.7333 -58.3500 83° East 500 575 33,300 500 Climbing Gander Center
Sun 11:27:32 PM 43.7667 -58.1667 76° East 500 575 34,000 350 Climbing Gander Center
Sun 11:28:32 PM 43.8167 -58.0000 67° East 490 564 34,000  Level Gander Center
Sun 11:29:32 PM 43.8333 -57.8000 83° East 490 564 34,000  Level Gander Center
Sun 11:30:32 PM 43.8667 -57.6333 74° East 500 575 34,000  Level Gander Center
Sun 11:31:32 PM 43.9000 -57.4167 78° East 490 564 34,000  Level Gander Center
Sun 11:32:32 PM 43.9333 -57.2500 74° East 500 575 34,000  Level Gander Center
Sun 11:33:32 PM 43.9833 -57.0667 69° East 490 564 34,000  Level Gander Center
Sun 11:34:32 PM 43.9833 -56.8833 90° East 500 575 34,000  Level Gander Center
Sun 11:35:32 PM 44.0167 -56.7000 76° East 510 587 34,000  Level Gander Center
Sun 11:36:32 PM 44.0167 -56.4833 90° East 500 575 34,000  Level Gander Center
Sun 11:37:32 PM 44.0500 -56.3000 76° East 510 587 34,000  Level Gander Center
Sun 11:38:32 PM 44.0500 -56.0833 90° East 510 587 34,000  Level Gander Center
Sun 11:39:32 PM 44.0833 -55.9000 76° East 510 587 34,000  Level Gander Center
Sun 11:40:32 PM 44.1000 -55.7167 83° East 510 587 34,000  Level Gander Center
Sun 11:46:32 PM 44.1700 -54.5580 83° East 520 598 34,000  Level FlightAware ADS-B
Sun 11:47:09 PM 44.1710 -54.4310 89° East 519 597 34,000  Level FlightAware ADS-B
Sun 11:47:45 PM 44.1720 -54.3110 89° East 519 597 34,000  Level FlightAware ADS-B
Sun 11:48:20 PM 44.1720 -54.1940 90° East 520 598 34,000  Level FlightAware ADS-B
Sun 11:48:58 PM 44.1730 -54.0830 89° East 520 598 34,000  Level FlightAware ADS-B
Sun 11:49:36 PM 44.1730 -53.9420 90° East 522 601 34,000  Level FlightAware ADS-B
Sun 11:50:32 PM 44.1730 -53.7510 90° East 524 603 34,000  Level FlightAware ADS-B
Sun 11:51:09 PM 44.1730 -53.6260 90° East 524 603 34,000  Level FlightAware ADS-B
Sun 11:51:41 PM 44.1730 -53.5190 90° East 523 602 34,000  Level FlightAware ADS-B
Sun 11:52:16 PM 44.1730 -53.4040 90° East 524 603 34,000  Level FlightAware ADS-B
Sun 11:52:53 PM 44.1730 -53.2760 90° East 524 603 34,000  Level FlightAware ADS-B
Sun 11:53:28 PM 44.1720 -53.1580 91° East 525 604 34,000  Level FlightAware ADS-B
Sun 11:54:00 PM 44.1720 -53.0500 90° East 526 605 34,000  Level FlightAware ADS-B
Sun 11:54:35 PM 44.1710 -52.9320 91° East 528 608 34,000  Level FlightAware ADS-B
Sun 11:55:09 PM 44.1700 -52.8190 91° East 530 610 34,000  Level FlightAware ADS-B
Sun 11:55:45 PM 44.1690 -52.6960 91° East 533 613 34,000  Level FlightAware ADS-B
Sun 11:56:21 PM 44.1680 -52.5730 91° East 535 616 34,000  Level FlightAware ADS-B
Sun 11:56:58 PM 44.1660 -52.4450 91° East 539 620 34,000  Level FlightAware ADS-B
Sun 11:57:39 PM 44.1610 -52.3160 93° East 541 623 34,000  Level FlightAware ADS-B
Sun 11:58:14 PM 44.1520 -52.1800 95° East 546 628 34,000  Level FlightAware ADS-B
Sun 11:58:51 PM 44.1440 -52.0470 95° East 547 629 34,000  Level FlightAware ADS-B
Sun 11:59:10 PM 44.1667 -52.4333 95° East 545 627 34,000  Level New York Oceanic (ODAPS)
Sun 11:59:22 PM 44.1370 -51.9420 95° East 549 632 34,000  Level FlightAware ADS-B
Sun 11:59:43 PM 44.1167 -51.8333 95° East 550 633 34,000  Level Gander Center
Sun 11:59:58 PM 44.1290 -51.8150 95° East 550 633 34,000  Level FlightAware ADS-B
Mon 12:00:30 AM 44.1220 -51.7030 95° East 551 634 34,000  Level FlightAware ADS-B
Mon 12:01:13 AM 44.1140 -51.5680 95° East 552 635 34,000  Level FlightAware ADS-B
Mon 12:01:49 AM 44.1070 -51.4600 95° East 552 635 34,000  Level FlightAware ADS-B
Mon 12:02:22 AM 44.1167 -51.5500 95° East 554 638 34,000  Level New York Oceanic (ODAPS)
Mon 12:02:27 AM 44.0950 -51.2840 95° East 557 641 34,000  Level FlightAware ADS-B
Mon 12:03:09 AM 44.0870 -51.1580 95° East 557 641 34,000  Level FlightAware ADS-B
Mon 12:03:45 AM 44.0800 -51.0480 95° East 557 641 34,000  Level FlightAware ADS-B
Mon 12:04:21 AM 44.0730 -50.9390 95° East 557 641 34,000  Level FlightAware ADS-B
Mon 12:04:57 AM 44.0660 -50.8300 95° East 557 641 34,000  Level FlightAware ADS-B
Mon 12:05:34 AM 44.0590 -50.7170 95° East 557 641 34,000  Level FlightAware ADS-B
Mon 12:06:10 AM 44.0520 -50.6080 95° East 557 641 34,000  Level FlightAware ADS-B
Mon 12:06:46 AM 44.0450 -50.4990 95° East 557 641 34,000  Level FlightAware ADS-B
Mon 12:07:22 AM 44.0380 -50.3890 95° East 557 641 34,000  Level FlightAware ADS-B
Mon 12:07:59 AM 44.0310 -50.2770 95° East 557 641 34,000  Level FlightAware ADS-B
Mon 12:08:35 AM 44.0240 -50.1680 95° East 557 641 34,000  Level FlightAware ADS-B
Mon 12:09:11 AM 44.0170 -50.0590 95° East 557 641 34,000  Level FlightAware ADS-B
Mon 12:09:47 AM 44.0100 -49.9490 95° East 557 641 34,000  Level FlightAware ADS-B
Mon 12:10:23 AM 44.0030 -49.8400 95° East 557 641 34,000  Level FlightAware ADS-B
Mon 12:10:37 AM 44.0000 -50.0000 71° East 550 633 34,000  Level New York Oceanic (ODAPS)
Mon 12:10:59 AM 43.9970 -49.7310 94° East 557 641 34,000  Level FlightAware ADS-B
Mon 12:11:40 AM 43.9890 -49.6070 95° East 557 641 34,000  Level FlightAware ADS-B
Mon 12:12:17 AM 43.9820 -49.4940 95° East 557 641 34,000  Level FlightAware ADS-B
Mon 12:14:00 AM 44.1085 -49.1979 59° Northeast  Level FlightAware Approximate
Mon 12:15:00 AM 44.1818 -49.0248 59° Northeast  Level FlightAware Approximate
Mon 12:16:00 AM 44.3852 -48.4166 72° East 550 633 34,000  Level FlightAware Transoceanic
Mon 12:17:00 AM 44.4319 -48.2173 72° East 550 633 34,000  Level FlightAware Transoceanic
Mon 12:18:00 AM 44.4781 -48.0176 72° East 550 633 34,000  Level FlightAware Transoceanic
Mon 12:19:00 AM 44.5240 -47.8176 72° East 550 633 34,000  Level FlightAware Transoceanic
Mon 12:20:00 AM 44.5696 -47.6173 72° East 550 633 34,000  Level FlightAware Transoceanic
Mon 12:21:00 AM 44.6148 -47.4167 73° East 550 633 34,000  Level FlightAware Transoceanic
Mon 12:22:00 AM 44.6597 -47.2157 73° East 550 633 34,000  Level FlightAware Transoceanic
Mon 12:23:00 AM 44.7042 -47.0145 73° East 550 633 34,000  Level FlightAware Transoceanic
Mon 12:24:00 AM 44.7483 -46.8129 73° East 550 633 34,000  Level FlightAware Transoceanic
Mon 12:25:00 AM 44.7921 -46.6111 73° East 550 633 34,000  Level FlightAware Transoceanic
Mon 12:26:00 AM 44.8356 -46.4089 73° East 550 633 34,000  Level FlightAware Transoceanic
Mon 12:26:00 AM 44.0000 -50.0000 71° East 550 633 34,000  Level ETMS Enhanced Traffic Management System
Mon 12:27:00 AM 44.8787 -46.2064 73° East 550 633 34,000  Level FlightAware Transoceanic
Mon 12:28:00 AM 44.9214 -46.0037 74° East 550 633 34,000  Level FlightAware Transoceanic
Mon 12:29:00 AM 44.9637 -45.8006 74° East 550 633 34,000  Level FlightAware Transoceanic
Mon 12:30:00 AM 45.0057 -45.5972 74° East 550 633 34,000  Level FlightAware Transoceanic
Mon 12:31:00 AM 45.0474 -45.3936 74° East 550 633 34,000  Level FlightAware Transoceanic
Mon 12:32:00 AM 45.1092 -45.0875 74° East 550 633 34,000  Level FlightAware Transoceanic
Mon 12:33:00 AM 45.1508 -44.8788 74° East 550 633 34,000  Level FlightAware Transoceanic
Mon 12:34:00 AM 45.1920 -44.6699 74° East 550 633 34,000  Level FlightAware Transoceanic
Mon 12:35:00 AM 45.2328 -44.4606 75° East 550 633 34,000  Level FlightAware Transoceanic
Mon 12:36:00 AM 45.2732 -44.2510 75° East 550 633 34,000  Level FlightAware Transoceanic
Mon 12:37:00 AM 45.3133 -44.0411 75° East 550 633 34,000  Level FlightAware Transoceanic
Mon 12:38:00 AM 45.3530 -43.8310 75° East 550 633 34,000  Level FlightAware Transoceanic
Mon 12:39:00 AM 45.3922 -43.6205 75° East 550 633 34,000  Level FlightAware Transoceanic
Mon 12:40:00 AM 45.4311 -43.4098 75° East 550 633 34,000  Level FlightAware Transoceanic
Mon 12:41:00 AM 45.4696 -43.1987 75° East 550 633 34,000  Level FlightAware Transoceanic
Mon 12:42:00 AM 45.5078 -42.9874 76° East 550 633 34,000  Level FlightAware Transoceanic
Mon 12:43:00 AM 45.5455 -42.7758 76° East 550 633 34,000  Level FlightAware Transoceanic
Mon 12:44:00 AM 45.5828 -42.5639 76° East 550 633 34,000  Level FlightAware Transoceanic
Mon 12:45:00 AM 45.6198 -42.3517 76° East 550 633 34,000  Level FlightAware Transoceanic
Mon 12:46:00 AM 45.6563 -42.1393 76° East 550 633 34,000  Level FlightAware Transoceanic
Mon 12:47:00 AM 45.6925 -41.9266 76° East 550 633 34,000  Level FlightAware Transoceanic
Mon 12:48:00 AM 45.7282 -41.7136 77° East 550 633 34,000  Level FlightAware Transoceanic
Mon 12:49:00 AM 45.7636 -41.5003 77° East 550 633 34,000  Level FlightAware Transoceanic
Mon 12:50:00 AM 45.7986 -41.2868 77° East 550 633 34,000  Level FlightAware Transoceanic
Mon 12:51:00 AM 45.8331 -41.0729 77° East 550 633 34,000  Level FlightAware Transoceanic
Mon 12:52:00 AM 45.8673 -40.8589 77° East 550 633 34,000  Level FlightAware Transoceanic
Mon 12:53:00 AM 45.9011 -40.6446 77° East 550 633 34,000  Level FlightAware Transoceanic
Mon 12:54:00 AM 45.9345 -40.4300 77° East 550 633 34,000  Level FlightAware Transoceanic
Mon 12:55:00 AM 45.9674 -40.2151 78° East 550 633 34,000  Level FlightAware Transoceanic
Mon 12:56:00 AM 46.0000 -40.0000 62° Northeast 550 633 34,000  Level FlightAware Transoceanic
Mon 12:57:00 AM 46.0711 -39.8034 63° Northeast 550 633 34,000  Level FlightAware Transoceanic
Mon 12:58:00 AM 46.1418 -39.6064 63° Northeast 550 633 34,000  Level FlightAware Transoceanic
Mon 12:59:00 AM 46.2122 -39.4088 63° Northeast 550 633 34,000  Level FlightAware Transoceanic
Mon 01:00:00 AM 46.2822 -39.2107 63° Northeast 550 633 34,000  Level FlightAware Transoceanic
Mon 01:01:00 AM 46.3519 -39.0122 63° Northeast 550 633 34,000  Level FlightAware Transoceanic
Mon 01:02:00 AM 46.4212 -38.8131 63° Northeast 550 633 34,000  Level FlightAware Transoceanic
Mon 01:03:00 AM 46.4903 -38.6135 63° Northeast 550 633 34,000  Level FlightAware Transoceanic
Mon 01:04:00 AM 46.5589 -38.4134 64° Northeast 550 633 34,000  Level FlightAware Transoceanic
Mon 01:05:00 AM 46.6272 -38.2128 64° Northeast 550 633 34,000  Level FlightAware Transoceanic
Mon 01:06:00 AM 46.6952 -38.0117 64° Northeast 550 633 34,000  Level FlightAware Transoceanic
Mon 01:07:00 AM 46.7628 -37.8101 64° Northeast 550 633 34,000  Level FlightAware Transoceanic
Mon 01:08:00 AM 46.8300 -37.6080 64° Northeast 550 633 34,000  Level FlightAware Transoceanic
Mon 01:09:00 AM 46.8969 -37.4053 64° Northeast 550 633 34,000  Level FlightAware Transoceanic
Mon 01:10:00 AM 46.9635 -37.2022 64° Northeast 550 633 34,000  Level FlightAware Transoceanic
Mon 01:11:00 AM 47.0296 -36.9986 65° Northeast 550 633 34,000  Level FlightAware Transoceanic
Mon 01:12:00 AM 47.0954 -36.7944 65° Northeast 550 633 34,000  Level FlightAware Transoceanic
Mon 01:13:00 AM 47.1609 -36.5898 65° Northeast 550 633 34,000  Level FlightAware Transoceanic
Mon 01:14:00 AM 47.2260 -36.3847 65° Northeast 550 633 34,000  Level FlightAware Transoceanic
Mon 01:15:00 AM 47.2907 -36.1790 65° Northeast 550 633 34,000  Level FlightAware Transoceanic
Mon 01:16:00 AM 47.3550 -35.9729 65° Northeast 550 633 34,000  Level FlightAware Transoceanic
Mon 01:17:00 AM 47.4190 -35.7662 66° East 550 633 34,000  Level FlightAware Transoceanic
Mon 01:17:00 AM 46.0000 -40.0000 62° Northeast 577 664 34,000  Level ETMS Enhanced Traffic Management System
Mon 01:18:00 AM 47.4826 -35.5591 66° East 550 633 34,000  Level FlightAware Transoceanic
Mon 01:19:00 AM 47.5458 -35.3514 66° East 550 633 34,000  Level FlightAware Transoceanic
Mon 01:20:00 AM 47.6087 -35.1432 66° East 550 633 34,000  Level FlightAware Transoceanic
Mon 01:21:00 AM 47.6712 -34.9346 66° East 550 633 34,000  Level FlightAware Transoceanic
Mon 01:22:00 AM 47.7333 -34.7254 66° East 550 633 34,000  Level FlightAware Transoceanic
Mon 01:23:00 AM 47.8670 -34.2691 67° East 577 664 34,000  Level FlightAware Transoceanic
Mon 01:24:00 AM 47.9305 -34.0491 67° East 577 664 34,000  Level FlightAware Transoceanic
Mon 01:25:00 AM 47.9936 -33.8287 67° East 577 664 34,000  Level FlightAware Transoceanic
Mon 01:26:00 AM 48.0563 -33.6077 67° East 577 664 34,000  Level FlightAware Transoceanic
Mon 01:27:00 AM 48.1185 -33.3862 67° East 577 664 34,000  Level FlightAware Transoceanic
Mon 01:28:00 AM 48.1803 -33.1642 67° East 577 664 34,000  Level FlightAware Transoceanic
Mon 01:29:00 AM 48.2417 -32.9416 68° East 577 664 34,000  Level FlightAware Transoceanic
Mon 01:30:00 AM 48.3027 -32.7185 68° East 577 664 34,000  Level FlightAware Transoceanic
Mon 01:31:00 AM 48.3632 -32.4948 68° East 577 664 34,000  Level FlightAware Transoceanic
Mon 01:32:00 AM 48.4233 -32.2706 68° East 577 664 34,000  Level FlightAware Transoceanic
Mon 01:33:00 AM 48.4830 -32.0459 68° East 577 664 34,000  Level FlightAware Transoceanic
Mon 01:34:00 AM 48.5422 -31.8207 68° East 577 664 34,000  Level FlightAware Transoceanic
Mon 01:35:00 AM 48.6010 -31.5949 69° East 577 664 34,000  Level FlightAware Transoceanic
Mon 01:36:00 AM 48.6593 -31.3686 69° East 577 664 34,000  Level FlightAware Transoceanic
Mon 01:37:00 AM 48.7172 -31.1418 69° East 577 664 34,000  Level FlightAware Transoceanic
Mon 01:38:00 AM 48.7747 -30.9145 69° East 577 664 34,000  Level FlightAware Transoceanic
Mon 01:39:00 AM 48.8317 -30.6866 69° East 577 664 34,000  Level FlightAware Transoceanic
Mon 01:40:00 AM 48.8882 -30.4583 69° East 577 664 34,000  Level FlightAware Transoceanic
Mon 01:41:00 AM 48.9444 -30.2294 70° East 577 664 34,000  Level FlightAware Transoceanic
Mon 01:42:00 AM 49.0000 -30.0000 77° East 577 664 34,000  Level FlightAware Transoceanic
Mon 01:43:00 AM 49.6078 -25.0512 81° East 577 664 34,000 22 Level FlightAware Transoceanic
Mon 01:44:00 AM 49.6115 -24.8294 88° East  Level Estimated
Mon 01:45:00 AM 49.6148 -24.6076 89° East  Level Estimated
Mon 01:46:00 AM 49.6176 -24.3857 89° East  Level Estimated
Mon 01:47:00 AM 49.6200 -24.1638 89° East  Level Estimated
Mon 01:48:00 AM 49.6220 -23.9419 89° East  Level Estimated
Mon 01:49:00 AM 49.6236 -23.7199 89° East  Level Estimated
Mon 01:50:00 AM 49.6247 -23.4980 89° East  Level Estimated
Mon 01:51:00 AM 49.6254 -23.2760 90° East  Level Estimated
Mon 01:52:00 AM 49.6257 -23.0541 90° East  Level Estimated
Mon 01:53:00 AM 49.6255 -22.8321 90° East  Level Estimated
Mon 01:54:00 AM 49.6250 -22.6102 90° East  Level Estimated
Mon 01:55:00 AM 49.6240 -22.3882 90° East  Level Estimated
Mon 01:56:00 AM 49.6226 -22.1663 90° East  Level Estimated
Mon 01:57:00 AM 49.6208 -21.9443 91° East  Level Estimated
Mon 01:58:00 AM 49.6185 -21.7225 91° East  Level Estimated
Mon 01:59:00 AM 49.6158 -21.5006 91° East  Level Estimated
Mon 02:00:00 AM 49.6127 -21.2787 91° East  Level Estimated
Mon 02:01:00 AM 49.6092 -21.0569 91° East  Level Estimated
Mon 02:02:00 AM 49.6052 -20.8351 91° East  Level Estimated
Mon 02:03:00 AM 49.6008 -20.6133 92° East  Level Estimated
Mon 02:04:00 AM 49.5961 -20.3916 92° East  Level Estimated
Mon 02:05:00 AM 49.5908 -20.1700 92° East  Level Estimated
Mon 02:06:00 AM 49.5852 -19.9483 92° East  Level Estimated
Mon 02:07:00 AM 49.5791 -19.7268 92° East  Level Estimated
Mon 02:08:00 AM 49.5726 -19.5053 93° East  Level Estimated
Mon 02:09:00 AM 49.5657 -19.2838 93° East  Level Estimated
Mon 02:10:00 AM 49.5583 -19.0624 93° East  Level Estimated
Mon 02:11:00 AM 49.5506 -18.8411 93° East  Level Estimated
Mon 02:12:00 AM 49.5424 -18.6199 93° East  Level Estimated
Mon 02:13:00 AM 49.5338 -18.3987 93° East  Level Estimated
Mon 02:14:00 AM 49.5248 -18.1777 94° East  Level Estimated
Mon 02:15:00 AM 49.5153 -17.9566 94° East  Level Estimated
Mon 02:16:00 AM 49.5055 -17.7357 94° East  Level Estimated
Mon 02:17:00 AM 49.4952 -17.5149 94° East  Level Estimated
Mon 02:18:00 AM 49.4845 -17.2942 94° East  Level Estimated
Mon 02:19:00 AM 49.4733 -17.0736 94° East  Level Estimated
Mon 02:20:00 AM 49.4618 -16.8530 95° East  Level Estimated
Mon 02:21:00 AM 49.4498 -16.6326 95° East  Level Estimated
Mon 02:22:00 AM 49.4374 -16.4123 95° East  Level Estimated
Mon 02:23:00 AM 49.4246 -16.1921 95° East  Level Estimated
Mon 02:24:00 AM 49.4114 -15.9720 95° East  Level Estimated
Mon 02:25:00 AM 49.3978 -15.7521 95° East  Level Estimated
Mon 02:26:00 AM 49.3837 -15.5322 96° East  Level Estimated
Mon 02:27:00 AM 49.3692 -15.3125 96° East  Level Estimated
Mon 02:28:00 AM 49.3543 -15.0929 96° East  Level Estimated
Mon 02:29:00 AM 49.3390 -14.8735 96° East  Level Estimated
Mon 02:30:00 AM 49.3233 -14.6546 96° East  Level Estimated
Mon 02:31:00 AM 49.3072 -14.4358 96° East  Level Estimated
Mon 02:32:00 AM 49.2907 -14.2171 97° East  Level Estimated
Mon 02:33:00 AM 49.2738 -13.9986 97° East  Level Estimated
Mon 02:34:00 AM 49.2565 -13.7803 97° East  Level Estimated
Mon 02:35:00 AM 49.2387 -13.5621 97° East  Level Estimated
Mon 02:36:00 AM 49.2205 -13.3441 97° East  Level Estimated
Mon 02:37:00 AM 49.2020 -13.1262 97° East  Level Estimated
Mon 02:38:00 AM 49.1830 -12.9085 98° East  Level Estimated
Mon 02:39:00 AM 49.1636 -12.6910 98° East  Level Estimated
Mon 02:40:00 AM 49.1438 -12.4736 98° East  Level Estimated
Mon 02:41:00 AM 49.1236 -12.2564 98° East  Level Estimated
Mon 02:42:00 AM 49.1030 -12.0394 98° East  Level Estimated
Mon 02:43:00 AM 49.0820 -11.8226 98° East  Level Estimated
Mon 02:44:00 AM 49.0605 -11.6060 99° East  Level Estimated
Mon 02:45:00 AM 49.0387 -11.3895 99° East  Level Estimated
Mon 02:46:00 AM 49.0164 -11.1733 99° East  Level Estimated
Mon 02:47:00 AM 48.9938 -10.9572 99° East  Level Estimated
Mon 02:48:00 AM 48.9708 -10.7413 99° East  Level Estimated
Mon 02:49:00 AM 48.9473 -10.5257 99° East  Level Estimated
Mon 02:50:00 AM 48.9235 -10.3102 99° East  Level Estimated
Mon 02:51:00 AM 48.8993 -10.0953 100° East  Level Estimated
Mon 02:52:00 AM 48.8746 -9.8806 100° East  Level Estimated
Mon 02:53:00 AM 48.8497 -9.6662 100° East  Level Estimated
Mon 02:54:00 AM 48.8242 -9.4519 100° East  Level Estimated
Mon 02:55:00 AM 48.7985 -9.2379 100° East  Level Estimated
Mon 02:56:00 AM 48.7723 -9.0241 100° East  Level Estimated
Mon 02:57:00 AM 48.7457 -8.8105 101° East  Level Estimated
Mon 02:58:00 AM 48.7187 -8.5972 101° East  Level Estimated
Mon 02:59:00 AM 48.6913 -8.3840 101° East  Level Estimated
Mon 03:00:00 AM 48.6635 -8.1712 101° East  Level Estimated
Mon 03:01:00 AM 48.6354 -7.9585 101° East  Level Estimated
Mon 03:02:00 AM 48.6068 -7.7461 101° East  Level Estimated
Mon 03:03:00 AM 48.5779 -7.5339 102° East  Level Estimated
Mon 03:04:00 AM 48.5486 -7.3220 102° East  Level Estimated
Mon 03:05:00 AM 48.5188 -7.1103 102° East  Level Estimated
Mon 03:06:00 AM 48.4887 -6.8989 102° East  Level Estimated
Mon 03:07:00 AM 48.4582 -6.6877 102° East  Level Estimated
Mon 03:08:00 AM 48.4274 -6.4768 102° East  Level Estimated
Mon 03:09:00 AM 48.3961 -6.2661 103° East  Level Estimated
Mon 03:10:00 AM 48.3644 -6.0557 103° East  Level Estimated
Mon 03:11:00 AM 48.3324 -5.8456 103° East  Level Estimated
Mon 03:12:00 AM 48.3000 -5.6357 103° East  Level Estimated
Mon 03:12:04 AM 49.3030 -9.5810 103° East 576 663 36,000  Level FlightAware ADS-B
Mon 03:12:49 AM 49.2780 -9.4180 103° East 575 662 36,000  Level FlightAware ADS-B
Mon 03:13:28 AM 49.2520 -9.2530 104° East 572 658 36,000  Level FlightAware ADS-B
Mon 03:14:07 AM 49.2280 -9.1000 103° East 569 655 36,000  Level FlightAware ADS-B
Mon 03:14:38 AM 49.2062 -8.9698 103° East 494 568 36,000  Level FlightAware UK
Mon 03:14:52 AM 49.1990 -8.9220 103° East 566 651 36,000  Level FlightAware ADS-B
Mon 03:15:23 AM 49.1790 -8.7970 104° East 565 650 36,000  Level FlightAware ADS-B
Mon 03:16:00 AM 49.1570 -8.6620 104° East 565 650 36,000  Level FlightAware ADS-B
Mon 03:16:37 AM 49.1340 -8.5190 104° East 565 650 36,000  Level FlightAware ADS-B
Mon 03:17:08 AM 49.1122 -8.3888 104° East 488 562 36,000  Level FlightAware UK
Mon 03:17:09 AM 49.1130 -8.3910 104° East 566 651 36,000  Level FlightAware ADS-B
Mon 03:17:42 AM 49.0910 -8.2640 105° East 567 652 36,000  Level FlightAware ADS-B
Mon 03:18:20 AM 49.0610 -8.1270 108° East 571 657 36,000  Level FlightAware ADS-B
Mon 03:18:54 AM 49.0300 -8.0020 111° Southeast 574 661 36,000  Level FlightAware ADS-B
Mon 03:19:27 AM 48.9940 -7.8630 111° Southeast 575 662 36,000  Level FlightAware ADS-B
Mon 03:20:04 AM 48.9570 -7.7290 113° Southeast 576 663 36,000  Level FlightAware ADS-B
Mon 03:20:38 AM 48.9221 -7.5963 113° Southeast 494 568 36,000  Level FlightAware UK
Mon 03:20:42 AM 48.9180 -7.5870 113° Southeast 577 664 36,000  Level FlightAware ADS-B
Mon 03:21:14 AM 48.8850 -7.4670 113° Southeast 578 665 36,000  Level FlightAware ADS-B
Mon 03:21:51 AM 48.8480 -7.3370 113° Southeast 578 665 36,000  Level FlightAware ADS-B
Mon 03:22:26 AM 48.8100 -7.2030 113° Southeast 579 666 36,000  Level FlightAware ADS-B
Mon 03:23:03 AM 48.7700 -7.0610 113° Southeast 578 665 36,000  Level FlightAware ADS-B
Mon 03:23:34 AM 48.7390 -6.9500 113° Southeast 577 664 36,000  Level FlightAware ADS-B
Mon 03:24:04 AM 48.7070 -6.8390 113° Southeast 576 663 36,000  Level FlightAware ADS-B
Mon 03:24:09 AM 48.6991 -6.8131 113° Southeast 496 571 36,000  Level FlightAware UK
Mon 03:24:39 AM 48.6671 -6.7016 113° Southeast 498 573 36,000  Level FlightAware UK
Mon 03:24:47 AM 48.6630 -6.6880 113° Southeast 576 663 36,000  Level FlightAware ADS-B
Mon 03:25:20 AM 48.6250 -6.5590 114° Southeast 575 662 36,000  Level FlightAware ADS-B
Mon 03:25:52 AM 48.5900 -6.4380 114° Southeast 574 661 36,000  Level FlightAware ADS-B
Mon 03:26:31 AM 48.5480 -6.2950 114° Southeast 573 659 36,000  Level FlightAware ADS-B
Mon 03:27:06 AM 48.5120 -6.1710 114° Southeast 574 661 36,000  Level FlightAware ADS-B
Mon 03:27:43 AM 48.4710 -6.0360 115° Southeast 573 659 36,000  Level FlightAware ADS-B
Mon 03:28:14 AM 48.4380 -5.9230 115° Southeast 573 659 36,000  Level FlightAware ADS-B
Mon 03:28:15 AM 48.4351 -5.9117 115° Southeast 498 573 36,000  Level FlightAware UK
Mon 03:28:45 AM 48.4028 -5.8027 115° Southeast 496 571 36,000  Level FlightAware UK
Mon 03:28:50 AM 48.4000 -5.7960 115° Southeast 572 658 36,000  Level FlightAware ADS-B
Mon 03:29:27 AM 48.3580 -5.6550 114° Southeast 572 658 36,000  Level FlightAware ADS-B
Mon 03:30:02 AM 48.3200 -5.5320 115° Southeast 573 659 36,000  Level FlightAware ADS-B
Mon 03:30:35 AM 48.2840 -5.4130 114° Southeast 572 658 36,000  Level FlightAware ADS-B
Mon 03:31:11 AM 48.2460 -5.2870 114° Southeast 570 656 36,000  Level FlightAware ADS-B
Mon 03:31:45 AM 48.2051 -5.1518 114° Southeast 496 571 36,000  Level FlightAware UK
Mon 03:31:48 AM 48.2040 -5.1500 114° Southeast 570 656 36,000  Level FlightAware ADS-B
Mon 03:32:22 AM 48.1650 -5.0250 115° Southeast 570 656 36,000  Level FlightAware ADS-B
Mon 03:32:53 AM 48.1310 -4.9140 115° Southeast 570 656 36,000  Level FlightAware ADS-B
Mon 03:33:32 AM 48.0870 -4.7750 115° Southeast 570 656 36,000  Level FlightAware ADS-B
Mon 03:34:08 AM 48.0470 -4.6420 114° Southeast 571 657 36,000  Level FlightAware ADS-B
Mon 03:34:39 AM 48.0130 -4.5390 116° Southeast 572 658 36,000  Level FlightAware ADS-B
Mon 03:35:16 AM 47.9710 -4.4040 115° Southeast 571 657 36,000  Level FlightAware ADS-B
Mon 03:35:51 AM 47.9320 -4.2790 115° Southeast 569 655 36,000  Level FlightAware ADS-B
Mon 03:36:08 AM 47.9286 -4.2724 127° Southeast 569 655 36,000  Level FlightAware ADS-B (LFBU / ANG)
Mon 03:37:00 AM 47.8550 -4.0350 115° Southeast 567 652 36,000  Level FlightAware ADS-B
Mon 03:37:36 AM 47.8140 -3.9050 115° Southeast 566 651 36,000  Level FlightAware ADS-B
Mon 03:38:11 AM 47.7750 -3.7816 115° Southeast 565 650 36,000  Level FlightAware ADS-B (LFBU / ANG)
Mon 03:38:45 AM 47.7410 -3.6768 116° Southeast 564 649 36,000  Level FlightAware ADS-B (LFBU / ANG)
Mon 03:39:16 AM 47.7027 -3.5551 115° Southeast 563 648 36,000  Level FlightAware ADS-B (LFBU / ANG)
Mon 03:39:57 AM 47.6580 -3.4190 116° Southeast 561 646 36,000  Level FlightAware ADS-B
Mon 03:40:28 AM 47.6230 -3.3120 116° Southeast 561 646 36,000  Level FlightAware ADS-B
Mon 03:41:05 AM 47.5800 -3.1780 115° Southeast 559 643 36,000  Level FlightAware ADS-B
Mon 03:41:40 AM 47.5410 -3.0600 116° Southeast 559 643 36,000  Level FlightAware ADS-B
Mon 03:42:13 AM 47.5040 -2.9470 116° Southeast 559 643 36,000  Level FlightAware ADS-B
Mon 03:42:54 AM 47.4572 -2.8030 116° Southeast 559 643 36,000  Level FlightAware ADS-B (LFBU / ANG)
Mon 03:43:24 AM 47.4270 -2.7140 117° Southeast 557 641 36,000  Level FlightAware ADS-B
Mon 03:43:55 AM 47.3883 -2.5949 116° Southeast 558 642 36,000  Level FlightAware ADS-B (LFBU / ANG)
Mon 03:44:32 AM 47.3470 -2.4720 116° Southeast 556 640 36,000  Level FlightAware ADS-B
Mon 03:44:46 AM 47.3312 -2.4247 116° Southeast 557 641 36,000  Level FlightAware ADS-B (LFBU / ANG)
Mon 03:45:46 AM 47.2630 -2.2210 116° Southeast 555 639 36,000  Level FlightAware ADS-B
Mon 03:46:22 AM 47.2200 -2.0970 117° Southeast 555 639 36,000  Level FlightAware ADS-B
Mon 03:46:54 AM 47.1840 -1.9890 116° Southeast 554 638 36,000  Level FlightAware ADS-B
Mon 03:47:12 AM 47.1700 -1.9520 119° Southeast 555 639 36,000  Level FlightAware ADS-B (LFBU / ANG)
Mon 03:48:08 AM 47.1015 -1.7504 116° Southeast 553 636 36,000  Level FlightAware ADS-B (LFBU / ANG)
Mon 03:48:40 AM 47.0630 -1.6370 116° Southeast 552 635 36,000  Level FlightAware ADS-B
Mon 03:49:10 AM 47.0334 -1.5538 118° Southeast 552 635 36,000  Level FlightAware ADS-B (LFBU / ANG)
Mon 03:49:52 AM 46.9800 -1.4010 117° Southeast 550 633 36,000  Level FlightAware ADS-B
Mon 03:50:10 AM 46.9584 -1.3383 117° Southeast 551 634 36,000  Level FlightAware ADS-B (LFBU / ANG)
Mon 03:50:42 AM 46.9208 -1.2324 117° Southeast 550 633 36,000  Level FlightAware ADS-B (LFBU / ANG)
Mon 03:51:13 AM 46.9019 -1.1763 116° Southeast 549 632 36,000  Level FlightAware ADS-B (LFBU / ANG)
Mon 03:52:12 AM 46.8160 -0.9360 118° Southeast 549 632 36,000  Level FlightAware ADS-B
Mon 03:52:46 AM 46.7760 -0.8210 117° Southeast 549 632 36,000 -414 Level FlightAware ADS-B
Mon 03:53:10 AM 46.7573 -0.7689 118° Southeast 548 631 35,600 -787 Descending FlightAware ADS-B (LFBU / ANG)
Mon 03:53:47 AM 46.7046 -0.6217 118° Southeast 549 632 35,200 -522 Descending FlightAware ADS-B (LFBU / ANG)
Mon 03:54:19 AM 46.6677 -0.5202 118° Southeast 548 631 35,000 -148 Descending FlightAware ADS-B (LFBU / ANG)
Mon 03:55:08 AM 46.6100 -0.3610 118° Southeast 546 628 35,000  Level FlightAware ADS-B
Mon 03:55:25 AM 46.5903 -0.3054 117° Southeast 545 627 35,000  Level FlightAware ADS-B (LFBU / ANG)
Mon 03:55:57 AM 46.5672 -0.1937 107° East 544 626 35,000  Level FlightAware ADS-B (LFBU / ANG)
Mon 03:56:36 AM 46.5436 -0.0596 104° East 543 625 35,000  Level FlightAware ADS-B (LFBU / ANG)
Mon 03:57:17 AM 46.4963 0.0766 117° Southeast 542 624 35,000  Level FlightAware ADS-B (LFBU / ANG)
Mon 03:57:58 AM 46.4453 0.2059 120° Southeast 542 624 35,000  Level FlightAware ADS-B (LFBU / ANG)
Mon 03:58:29 AM 46.4067 0.3033 120° Southeast 541 623 35,000  Level FlightAware ADS-B (LFBU / ANG)
Mon 03:58:59 AM 46.3693 0.4009 119° Southeast 541 623 35,000  Level FlightAware ADS-B (LFBU / ANG)
Mon 03:59:30 AM 46.3320 0.4953 120° Southeast 541 623 35,000  Level FlightAware ADS-B (LFBU / ANG)
Mon 04:00:24 AM 46.2669 0.6694 118° Southeast 539 620 35,000  Level FlightAware ADS-B (LFBU / ANG)
Mon 04:00:55 AM 46.2411 0.7709 110° East 538 619 35,000  Level FlightAware ADS-B (LFBU / ANG)
Mon 04:01:32 AM 46.2240 0.9010 101° East 537 618 35,000  Level FlightAware ADS-B
Mon 04:01:39 AM 46.2218 0.9259 97° East 537 618 35,000  Level FlightAware ADS-B (LFBU / ANG)
Mon 04:02:10 AM 46.2110 1.0283 99° East 536 617 35,000  Level FlightAware ADS-B (LFBU / ANG)
Mon 04:02:41 AM 46.1990 1.1450 98° East 534 615 35,000  Level FlightAware ADS-B
Mon 04:02:57 AM 46.1934 1.2012 98° East 535 616 35,000  Level FlightAware ADS-B (LFBU / ANG)
Mon 04:03:40 AM 46.1775 1.3561 98° East 534 615 35,000  Level FlightAware ADS-B (LFBU / ANG)
Mon 04:04:24 AM 46.1620 1.5070 98° East 534 615 35,000  Level FlightAware ADS-B
Mon 04:04:35 AM 46.1572 1.5456 100° East 534 615 35,000  Level FlightAware ADS-B (LFBU / ANG)
Mon 04:05:06 AM 46.1443 1.6539 100° East 534 615 35,000  Level FlightAware ADS-B (LFBU / ANG)
Mon 04:05:37 AM 46.1307 1.7626 100° East 534 615 35,000  Level FlightAware ADS-B (LFBU / ANG)
Mon 04:06:15 AM 46.1143 1.8955 100° East 534 615 35,000  Level FlightAware ADS-B (LFBU / ANG)
Mon 04:06:48 AM 46.1019 1.9970 100° East 534 615 35,000  Level FlightAware ADS-B (LFBU / ANG)
Mon 04:07:20 AM 46.0870 2.1190 100° East 533 613 35,000  Level FlightAware ADS-B
Mon 04:07:38 AM 46.0788 2.1855 100° East 533 613 35,000  Level FlightAware ADS-B (LFBU / ANG)
Mon 04:08:09 AM 46.0652 2.2935 100° East 533 613 35,000  Level FlightAware ADS-B (LFBU / ANG)
Mon 04:08:40 AM 46.0513 2.4046 100° East 532 612 35,000  Level FlightAware ADS-B (LFBU / ANG)
Mon 04:09:10 AM 46.0380 2.5091 100° East 532 612 35,000  Level FlightAware ADS-B (LFBU / ANG)
Mon 04:10:07 AM 46.0131 2.7030 100° East 531 611 35,000  Level FlightAware ADS-B (LFBU / ANG)
Mon 04:10:29 AM 45.9972 2.7805 106° East 531 611 35,000  Level FlightAware ADS-B (LFBU / ANG)
Mon 04:10:49 AM 45.9729 2.8385 121° Southeast 530 610 35,000  Level FlightAware ADS-B (LFBU / ANG)
Mon 04:11:29 AM 45.9050 2.9376 135° Southeast 526 605 35,000  Level FlightAware ADS-B (LFBU / ANG)
Mon 04:11:59 AM 45.8565 3.0001 138° Southeast 523 602 35,000  Level FlightAware ADS-B (LFBU / ANG)
Mon 04:12:43 AM 45.7700 3.1100 138° Southeast 522 601 35,000  Level FlightAware ADS-B
Mon 04:12:50 AM 45.7585 3.1231 141° Southeast 522 601 35,000  Level FlightAware ADS-B (LFBU / ANG)
Mon 04:13:21 AM 45.7010 3.1961 138° Southeast 522 601 35,000  Level FlightAware ADS-B (LFBU / ANG)
Mon 04:13:55 AM 45.6390 3.2740 139° Southeast 523 602 35,000  Level FlightAware ADS-B
Mon 04:14:22 AM 45.5922 3.3329 139° Southeast 521 600 35,000  Level FlightAware ADS-B (LFBU / ANG)
Mon 04:15:02 AM 45.5190 3.4240 139° Southeast 520 598 35,000  Level FlightAware ADS-B
Mon 04:15:38 AM 45.4540 3.5050 139° Southeast 521 600 35,000  Level FlightAware ADS-B
Mon 04:16:12 AM 45.3940 3.5800 139° Southeast 522 601 35,000  Level FlightAware ADS-B
Mon 04:16:46 AM 45.3290 3.6610 139° Southeast 522 601 35,000  Level FlightAware ADS-B
Mon 04:17:22 AM 45.2710 3.7450 134° Southeast 530 610 35,000  Level FlightAware ADS-B
Mon 04:17:58 AM 45.2230 3.8550 122° Southeast 534 615 35,000  Level FlightAware ADS-B
Mon 04:18:34 AM 45.1770 3.9660 120° Southeast 533 613 35,000  Level FlightAware ADS-B
Mon 04:19:06 AM 45.1360 4.0580 122° Southeast 532 612 35,000  Level FlightAware ADS-B
Mon 04:19:42 AM 45.0890 4.1650 122° Southeast 531 611 35,000  Level FlightAware ADS-B
Mon 04:20:16 AM 45.0430 4.2660 123° Southeast 530 610 35,000  Level FlightAware ADS-B
Mon 04:20:53 AM 44.9960 4.3680 123° Southeast 530 610 35,000  Level FlightAware ADS-B
Mon 04:21:30 AM 44.9480 4.4810 121° Southeast 532 612 35,000  Level FlightAware ADS-B
Mon 04:22:02 AM 44.9080 4.5770 120° Southeast 532 612 35,000  Level FlightAware ADS-B
Mon 04:22:36 AM 44.8650 4.6810 120° Southeast 531 611 35,000  Level FlightAware ADS-B
Mon 04:23:15 AM 44.8170 4.7940 121° Southeast 531 611 35,000  Level FlightAware ADS-B
Mon 04:23:47 AM 44.7770 4.8920 120° Southeast 530 610 35,000  Level FlightAware ADS-B
Mon 04:24:24 AM 44.7300 4.9980 122° Southeast 529 609 35,000  Level FlightAware ADS-B
Mon 04:24:59 AM 44.6860 5.1040 120° Southeast 529 609 35,000  Level FlightAware ADS-B
Mon 04:25:32 AM 44.6430 5.1970 123° Southeast 526 605 35,000  Level FlightAware ADS-B
Mon 04:26:08 AM 44.5880 5.2930 129° Southeast 525 604 35,000  Level FlightAware ADS-B
Mon 04:26:43 AM 44.5340 5.3800 131° Southeast 525 604 35,000  Level FlightAware ADS-B
Mon 04:27:19 AM 44.4730 5.4760 132° Southeast 524 603 35,000  Level FlightAware ADS-B
Mon 04:27:52 AM 44.4210 5.5600 131° Southeast 524 603 35,000  Level FlightAware ADS-B
Mon 04:28:27 AM 44.3690 5.6470 130° Southeast 528 608 35,000  Level FlightAware ADS-B
Mon 04:29:03 AM 44.3170 5.7510 125° Southeast 531 611 35,000  Level FlightAware ADS-B
Mon 04:29:40 AM 44.2670 5.8560 124° Southeast 533 613 35,000  Level FlightAware ADS-B
Mon 04:30:12 AM 44.2230 5.9440 125° Southeast 533 613 35,000  Level FlightAware ADS-B
Mon 04:30:47 AM 44.1730 6.0490 124° Southeast 533 613 35,000  Level FlightAware ADS-B
Mon 04:31:24 AM 44.1220 6.1510 125° Southeast 533 613 35,000  Level FlightAware ADS-B
Mon 04:31:57 AM 44.0750 6.2470 124° Southeast 533 613 35,000  Level FlightAware ADS-B
Mon 04:32:31 AM 44.0270 6.3430 125° Southeast 534 615 35,000  Level FlightAware ADS-B
Mon 04:33:09 AM 43.9750 6.4480 125° Southeast 535 616 35,000  Level FlightAware ADS-B
Mon 04:33:45 AM 43.9250 6.5490 124° Southeast 533 613 35,000  Level FlightAware ADS-B
Mon 04:34:16 AM 43.8820 6.6360 124° Southeast 531 611 35,000  Level FlightAware ADS-B
Mon 04:34:53 AM 43.8300 6.7390 125° Southeast 528 608 35,000  Level FlightAware ADS-B
Mon 04:35:27 AM 43.7820 6.8330 125° Southeast 526 605 35,000  Level FlightAware ADS-B
Mon 04:36:05 AM 43.7330 6.9460 121° Southeast 532 612 35,000  Level FlightAware ADS-B
Mon 04:36:37 AM 43.6960 7.0340 120° Southeast 528 608 35,000  Level FlightAware ADS-B
Mon 04:37:11 AM 43.6550 7.1290 121° Southeast 525 604 35,000  Level FlightAware ADS-B
Mon 04:37:49 AM 43.6050 7.2440 121° Southeast 522 601 35,000  Level FlightAware ADS-B
Mon 04:38:26 AM 43.5580 7.3480 122° Southeast 520 598 35,000  Level FlightAware ADS-B
Mon 04:39:10 AM 43.5040 7.4690 122° Southeast 517 595 35,000  Level FlightAware ADS-B
Mon 04:39:46 AM 43.4560 7.5720 123° Southeast 516 594 35,000  Level FlightAware ADS-B
Mon 04:40:22 AM 43.4100 7.6760 121° Southeast 515 593 35,000  Level FlightAware ADS-B
Mon 04:40:59 AM 43.3660 7.7730 122° Southeast 514 592 35,000  Level FlightAware ADS-B
Mon 04:41:30 AM 43.3250 7.8640 122° Southeast 513 590 35,000  Level FlightAware ADS-B
Mon 04:42:05 AM 43.2810 7.9610 122° Southeast 513 590 35,000  Level FlightAware ADS-B
Mon 04:42:41 AM 43.2350 8.0600 123° Southeast 515 593 35,000  Level FlightAware ADS-B
Mon 04:43:18 AM 43.1880 8.1630 122° Southeast 518 596 35,000  Level FlightAware ADS-B
Mon 04:43:51 AM 43.1470 8.2520 122° Southeast 520 598 35,000  Level FlightAware ADS-B
Mon 04:44:28 AM 43.1000 8.3550 122° Southeast 521 600 35,000  Level FlightAware ADS-B
Mon 04:45:02 AM 43.0550 8.4520 122° Southeast 520 598 35,000  Level FlightAware ADS-B
Mon 04:45:35 AM 43.0140 8.5410 122° Southeast 520 598 35,000  Level FlightAware ADS-B
Mon 04:46:11 AM 42.9680 8.6410 122° Southeast 521 600 35,000  Level FlightAware ADS-B
Mon 04:46:48 AM 42.9190 8.7440 123° Southeast 522 601 35,000  Level FlightAware ADS-B
Mon 04:47:24 AM 42.8720 8.8440 123° Southeast 523 602 35,000  Level FlightAware ADS-B
Mon 04:47:56 AM 42.8300 8.9350 122° Southeast 524 603 35,000  Level FlightAware ADS-B
Mon 04:48:32 AM 42.7840 9.0330 123° Southeast 524 603 35,000  Level FlightAware ADS-B
Mon 04:49:04 AM 42.7410 9.1240 123° Southeast 525 604 35,000  Level FlightAware ADS-B
Mon 04:49:34 AM 42.7010 9.2070 123° Southeast 524 603 35,000  Level FlightAware ADS-B
Mon 04:50:30 AM 42.6280 9.3590 123° Southeast 526 605 35,000  Level FlightAware ADS-B
Mon 04:51:10 AM 42.5780 9.4730 121° Southeast 534 615 35,000  Level FlightAware ADS-B
Mon 04:51:41 AM 42.5480 9.5690 113° Southeast 540 621 35,000  Level FlightAware ADS-B
Mon 04:52:18 AM 42.5180 9.6830 110° East 540 621 35,000  Level FlightAware ADS-B
Mon 04:52:53 AM 42.4880 9.7980 109° East 540 621 35,000  Level FlightAware ADS-B
Mon 04:53:26 AM 42.4600 9.9030 110° East 540 621 35,000  Level FlightAware ADS-B
Mon 04:54:02 AM 42.4290 10.0180 110° East 539 620 35,000  Level FlightAware ADS-B
Mon 04:54:38 AM 42.3990 10.1290 110° East 539 620 35,000  Level FlightAware ADS-B
Mon 04:55:00 AM 42.3730 10.2010 116° Southeast 530 610 35,000  Level FlightAware ADS-B
Mon 04:55:36 AM 42.3280 10.2990 122° Southeast 529 609 35,000  Level FlightAware ADS-B
Mon 04:56:06 AM 42.2870 10.3850 123° Southeast 528 608 35,000  Level FlightAware ADS-B
Mon 04:56:44 AM 42.2350 10.4850 125° Southeast 527 606 35,000  Level FlightAware ADS-B
Mon 04:57:21 AM 42.1840 10.5840 125° Southeast 527 606 35,000  Level FlightAware ADS-B
Mon 04:57:54 AM 42.1360 10.6760 125° Southeast 528 608 35,000  Level FlightAware ADS-B
Mon 04:58:30 AM 42.0860 10.7730 125° Southeast 528 608 35,000  Level FlightAware ADS-B
Mon 04:59:06 AM 42.0360 10.8710 124° Southeast 528 608 35,000  Level FlightAware ADS-B
Mon 04:59:38 AM 41.9910 10.9570 125° Southeast 526 605 35,000  Level FlightAware ADS-B
Mon 05:00:14 AM 41.9420 11.0510 125° Southeast 526 605 35,000  Level FlightAware ADS-B
Mon 05:00:48 AM 41.8940 11.1440 125° Southeast 525 604 35,000  Level FlightAware ADS-B
Mon 05:01:24 AM 41.8440 11.2370 126° Southeast 525 604 35,000  Level FlightAware ADS-B
Mon 05:02:00 AM 41.7930 11.3350 125° Southeast 525 604 35,000  Level FlightAware ADS-B
Mon 05:02:33 AM 41.7480 11.4200 125° Southeast 525 604 35,000  Level FlightAware ADS-B
Mon 05:03:09 AM 41.6970 11.5160 125° Southeast 525 604 35,000  Level FlightAware ADS-B
Mon 05:03:45 AM 41.6460 11.6100 126° Southeast 524 603 35,000  Level FlightAware ADS-B
Mon 05:04:19 AM 41.5970 11.7030 125° Southeast 522 601 35,000  Level FlightAware ADS-B
Mon 05:04:53 AM 41.5500 11.7920 125° Southeast 521 600 35,000  Level FlightAware ADS-B
Mon 05:05:27 AM 41.5020 11.8810 126° Southeast 521 600 35,000  Level FlightAware ADS-B
Mon 05:06:05 AM 41.4490 11.9770 126° Southeast 521 600 35,000  Level FlightAware ADS-B
Mon 05:06:41 AM 41.3980 12.0710 126° Southeast 520 598 35,000  Level FlightAware ADS-B
Mon 05:07:13 AM 41.3520 12.1570 125° Southeast 520 598 35,000  Level FlightAware ADS-B
Mon 05:07:49 AM 41.3030 12.2480 126° Southeast 521 600 35,000  Level FlightAware ADS-B
Mon 05:08:23 AM 41.2540 12.3380 126° Southeast 520 598 35,000  Level FlightAware ADS-B
Mon 05:08:57 AM 41.2050 12.4260 126° Southeast 520 598 35,000  Level FlightAware ADS-B
Mon 05:09:35 AM 41.1520 12.5220 126° Southeast 520 598 35,000  Level FlightAware ADS-B
Mon 05:10:07 AM 41.1070 12.6070 125° Southeast 521 600 35,000  Level FlightAware ADS-B
Mon 05:10:43 AM 41.0650 12.7010 121° Southeast 520 598 35,000  Level FlightAware ADS-B
Mon 05:11:30 AM 41.0090 12.8270 120° Southeast 520 598 35,000  Level FlightAware ADS-B
Mon 05:12:07 AM 40.9620 12.9310 121° Southeast 518 596 35,000  Level FlightAware ADS-B
Mon 05:12:43 AM 40.9170 13.0310 121° Southeast 518 596 35,000  Level FlightAware ADS-B
Mon 05:13:19 AM 40.8730 13.1290 121° Southeast 518 596 35,000  Level FlightAware ADS-B
Mon 05:13:49 AM 40.8370 13.2110 120° Southeast 518 596 35,000  Level FlightAware ADS-B
Mon 05:14:27 AM 40.7910 13.3150 120° Southeast 519 597 35,000  Level FlightAware ADS-B
Mon 05:15:04 AM 40.7460 13.4150 121° Southeast 521 600 35,000  Level FlightAware ADS-B
Mon 05:15:40 AM 40.7010 13.5140 121° Southeast 521 600 35,000  Level FlightAware ADS-B
Mon 05:16:10 AM 40.6630 13.5980 121° Southeast 522 601 35,000  Level FlightAware ADS-B
Mon 05:16:48 AM 40.6170 13.7000 121° Southeast 523 602 35,000  Level FlightAware ADS-B
Mon 05:17:22 AM 40.5740 13.7950 121° Southeast 523 602 35,000  Level FlightAware ADS-B
Mon 05:18:00 AM 40.5260 13.8990 121° Southeast 524 603 35,000  Level FlightAware ADS-B
Mon 05:18:32 AM 40.4870 13.9830 121° Southeast 524 603 35,000  Level FlightAware ADS-B
Mon 05:19:08 AM 40.4410 14.0850 121° Southeast 525 604 35,000  Level FlightAware ADS-B
Mon 05:19:44 AM 40.3960 14.1800 122° Southeast 526 605 35,000  Level FlightAware ADS-B
Mon 05:20:12 AM 40.3610 14.2570 121° Southeast 526 605 35,000  Level FlightAware ADS-B
Mon 05:20:48 AM 40.3150 14.3570 121° Southeast 524 603 35,000  Level FlightAware ADS-B
Mon 05:21:20 AM 40.2760 14.4410 121° Southeast 523 602 35,000  Level FlightAware ADS-B
Mon 05:21:56 AM 40.2310 14.5390 121° Southeast 523 602 35,000  Level FlightAware ADS-B
Mon 05:22:34 AM 40.1830 14.6410 122° Southeast 524 603 35,000  Level FlightAware ADS-B
Mon 05:23:06 AM 40.1420 14.7280 122° Southeast 523 602 35,000  Level FlightAware ADS-B
Mon 05:23:42 AM 40.0960 14.8250 122° Southeast 523 602 35,000  Level FlightAware ADS-B
Mon 05:24:18 AM 40.0510 14.9220 121° Southeast 524 603 35,000  Level FlightAware ADS-B
Mon 05:24:50 AM 40.0100 15.0100 121° Southeast 523 602 35,000  Level FlightAware ADS-B
Mon 05:25:28 AM 39.9650 15.1050 122° Southeast 524 603 35,000  Level FlightAware ADS-B
Mon 05:26:00 AM 39.9210 15.1960 122° Southeast 523 602 35,000  Level FlightAware ADS-B
Mon 05:26:36 AM 39.8740 15.2950 122° Southeast 522 601 35,000  Level FlightAware ADS-B
Mon 05:27:12 AM 39.8290 15.3880 122° Southeast 521 600 35,000  Level FlightAware ADS-B
Mon 05:27:48 AM 39.7830 15.4840 122° Southeast 520 598 35,000  Level FlightAware ADS-B
Mon 05:28:24 AM 39.7370 15.5810 122° Southeast 519 597 35,000  Level FlightAware ADS-B
Mon 05:28:56 AM 39.6970 15.6660 121° Southeast 518 596 35,000  Level FlightAware ADS-B
Mon 05:29:32 AM 39.6520 15.7580 122° Southeast 519 597 35,000  Level FlightAware ADS-B
Mon 05:30:08 AM 39.6070 15.8510 122° Southeast 519 597 35,000  Level FlightAware ADS-B
Mon 05:30:40 AM 39.5650 15.9350 123° Southeast 519 597 35,000  Level FlightAware ADS-B
Mon 05:31:16 AM 39.5180 16.0320 122° Southeast 520 598 35,000  Level FlightAware ADS-B
Mon 05:31:53 AM 39.4740 16.1290 120° Southeast 523 602 35,000  Level FlightAware ADS-B
Mon 05:32:24 AM 39.4420 16.2170 115° Southeast 526 605 35,000  Level FlightAware ADS-B
Mon 05:33:02 AM 39.4080 16.3280 112° Southeast 527 606 35,000  Level FlightAware ADS-B
Mon 05:33:38 AM 39.3740 16.4360 112° Southeast 526 605 35,000  Level FlightAware ADS-B
Mon 05:34:14 AM 39.3400 16.5400 113° Southeast 524 603 35,000  Level FlightAware ADS-B
Mon 05:34:46 AM 39.3120 16.6300 112° Southeast 523 602 35,000  Level FlightAware ADS-B
Mon 05:35:22 AM 39.2790 16.7340 112° Southeast 524 603 35,000  Level FlightAware ADS-B
Mon 05:35:58 AM 39.2450 16.8410 112° Southeast 523 602 35,000  Level FlightAware ADS-B
Mon 05:36:28 AM 39.2170 16.9270 113° Southeast 522 601 35,000  Level FlightAware ADS-B
Mon 05:37:04 AM 39.1840 17.0310 112° Southeast 521 600 35,000  Level FlightAware ADS-B
Mon 05:37:41 AM 39.1490 17.1360 113° Southeast 520 598 35,000  Level FlightAware ADS-B
Mon 05:38:17 AM 39.1160 17.2390 112° Southeast 518 596 35,000  Level FlightAware ADS-B
Mon 05:38:51 AM 39.0840 17.3360 113° Southeast 519 597 35,000  Level FlightAware ADS-B
Mon 05:39:27 AM 39.0500 17.4380 113° Southeast 519 597 35,000  Level FlightAware ADS-B
Mon 05:40:04 AM 39.0160 17.5430 113° Southeast 518 596 35,000  Level FlightAware ADS-B
Mon 05:40:36 AM 38.9850 17.6330 114° Southeast 518 596 35,000  Level FlightAware ADS-B
Mon 05:41:12 AM 38.9510 17.7380 113° Southeast 519 597 35,000  Level FlightAware ADS-B
Mon 05:41:48 AM 38.9160 17.8400 114° Southeast 519 597 35,000  Level FlightAware ADS-B
Mon 05:42:20 AM 38.8860 17.9280 114° Southeast 520 598 35,000  Level FlightAware ADS-B
Mon 05:42:56 AM 38.8520 18.0320 113° Southeast 519 597 35,000  Level FlightAware ADS-B
Mon 05:43:29 AM 38.8210 18.1230 114° Southeast 520 598 35,000  Level FlightAware ADS-B
Mon 05:44:06 AM 38.7850 18.2280 114° Southeast 521 600 35,000  Level FlightAware ADS-B
Mon 05:44:42 AM 38.7500 18.3320 113° Southeast 521 600 35,000  Level FlightAware ADS-B
Mon 05:45:19 AM 38.7150 18.4340 114° Southeast 520 598 35,000  Level FlightAware ADS-B
Mon 05:45:50 AM 38.6850 18.5210 114° Southeast 520 598 35,000  Level FlightAware ADS-B
Mon 05:46:26 AM 38.6490 18.6250 114° Southeast 520 598 35,000  Level FlightAware ADS-B
Mon 05:47:04 AM 38.6120 18.7320 114° Southeast 520 598 35,000  Level FlightAware ADS-B
Mon 05:47:48 AM 38.5700 18.8530 114° Southeast 519 597 35,000  Level FlightAware ADS-B
Mon 05:48:24 AM 38.5490 18.9140 114° Southeast 518 596 35,000  Level FlightAware ADS-B
Mon 05:49:01 AM 38.5180 19.0020 114° Southeast 518 596 35,000  Level FlightAware ADS-B
Mon 05:49:37 AM 38.4880 19.0880 114° Southeast 518 596 35,000  Level FlightAware ADS-B
Mon 05:50:13 AM 38.4580 19.1730 114° Southeast 518 596 35,000  Level FlightAware ADS-B
Mon 05:50:41 AM 38.4370 19.3110 101° East 518 596 35,000  Level FlightAware ADS-B
Mon 05:51:23 AM 38.4040 19.4330 109° East 518 596 35,000  Level FlightAware ADS-B
Mon 05:52:04 AM 38.3730 19.5490 109° East 518 596 35,000  Level FlightAware ADS-B
Mon 05:52:44 AM 38.3420 19.6670 108° East 517 595 35,000  Level FlightAware ADS-B
Mon 05:53:16 AM 38.3170 19.7590 109° East 517 595 35,000  Level FlightAware ADS-B
Mon 05:53:53 AM 38.2880 19.8680 109° East 517 595 35,000  Level FlightAware ADS-B
Mon 05:54:25 AM 38.2620 19.9620 109° East 516 594 35,000  Level FlightAware ADS-B
Mon 05:55:17 AM 38.2260 20.0940 109° East 516 594 35,000  Level FlightAware ADS-B
Mon 05:56:07 AM 38.1730 20.2860 109° East 513 590 35,000  Level FlightAware ADS-B
Mon 05:56:13 AM 38.1680 20.3020 112° Southeast 513 590 35,000  Level FlightAware ADS-B
Mon 05:57:12 AM 38.1300 20.4460 109° East 513 590 35,000  Level FlightAware ADS-B
Mon 05:57:45 AM 38.0910 20.5620 113° Southeast 513 590 35,000  Level FlightAware ADS-B
Mon 05:58:36 AM 38.0430 20.6920 115° Southeast 513 590 35,000  Level FlightAware ADS-B
Mon 05:59:09 AM 38.0060 20.7870 116° Southeast 510 587 35,000  Level FlightAware ADS-B
Mon 05:59:44 AM 37.9720 20.8770 116° Southeast 509 586 35,000  Level FlightAware ADS-B
Mon 06:00:14 AM 37.9400 20.9630 115° Southeast 511 588 35,000  Level FlightAware ADS-B
Mon 06:00:56 AM 37.8960 21.0780 116° Southeast 509 586 35,000  Level FlightAware ADS-B
Mon 06:01:31 AM 37.8600 21.1720 116° Southeast 508 585 35,000  Level FlightAware ADS-B
Mon 06:02:13 AM 37.8170 21.2840 116° Southeast 508 585 35,000  Level FlightAware ADS-B
Mon 06:02:48 AM 37.7820 21.3750 116° Southeast 508 585 35,000  Level FlightAware ADS-B
Mon 06:03:20 AM 37.7480 21.4610 117° Southeast 508 585 35,000  Level FlightAware ADS-B
Mon 06:03:55 AM 37.7110 21.5590 115° Southeast 508 585 35,000  Level FlightAware ADS-B
Mon 06:04:30 AM 37.6790 21.6420 116° Southeast 507 583 35,000  Level FlightAware ADS-B
Mon 06:05:08 AM 37.6390 21.7430 117° Southeast 508 585 35,000  Level FlightAware ADS-B
Mon 06:05:44 AM 37.5990 21.8460 116° Southeast 508 585 35,000  Level FlightAware ADS-B
Mon 06:06:14 AM 37.5670 21.9260 117° Southeast 508 585 35,000  Level FlightAware ADS-B
Mon 06:06:51 AM 37.5280 22.0240 117° Southeast 508 585 35,000  Level FlightAware ADS-B
Mon 06:07:28 AM 37.4900 22.1220 116° Southeast 507 583 35,000  Level FlightAware ADS-B
Mon 06:08:00 AM 37.4570 22.2060 116° Southeast 508 585 35,000  Level FlightAware ADS-B
Mon 06:08:37 AM 37.4190 22.3020 116° Southeast 507 583 35,000  Level FlightAware ADS-B
Mon 06:09:14 AM 37.3840 22.4070 113° Southeast 507 583 35,000  Level FlightAware ADS-B
Mon 06:09:44 AM 37.3600 22.4880 110° East 508 585 35,000  Level FlightAware ADS-B
Mon 06:10:21 AM 37.3300 22.5930 110° East 509 586 35,000  Level FlightAware ADS-B
Mon 06:10:58 AM 37.3000 22.6960 110° East 508 585 35,000  Level FlightAware ADS-B
Mon 06:11:31 AM 37.2740 22.7840 110° East 509 586 35,000  Level FlightAware ADS-B
Mon 06:12:08 AM 37.2460 22.8810 110° East 509 586 35,000  Level FlightAware ADS-B
Mon 06:12:40 AM 37.2180 22.9760 110° East 508 585 35,000  Level FlightAware ADS-B
Mon 06:13:17 AM 37.1870 23.0800 110° East 508 585 35,000  Level FlightAware ADS-B
Mon 06:13:54 AM 37.1570 23.1800 111° Southeast 508 585 35,000  Level FlightAware ADS-B
Mon 06:14:26 AM 37.1300 23.2710 110° East 509 586 35,000  Level FlightAware ADS-B
Mon 06:15:03 AM 37.0990 23.3700 111° Southeast 510 587 35,000  Level FlightAware ADS-B
Mon 06:15:35 AM 37.0690 23.4570 113° Southeast 510 587 35,000  Level FlightAware ADS-B
Mon 06:16:10 AM 37.0360 23.5510 114° Southeast 510 587 35,000  Level FlightAware ADS-B
Mon 06:16:47 AM 37.0010 23.6540 113° Southeast 509 586 35,000  Level FlightAware ADS-B
Mon 06:17:23 AM 36.9670 23.7510 114° Southeast 509 586 35,000  Level FlightAware ADS-B
Mon 06:17:58 AM 36.9340 23.8450 114° Southeast 508 585 35,000  Level FlightAware ADS-B
Mon 06:18:31 AM 36.9040 23.9310 114° Southeast 507 583 35,000  Level FlightAware ADS-B
Mon 06:19:03 AM 36.8740 24.0200 113° Southeast 506 582 35,000  Level FlightAware ADS-B
Mon 06:19:42 AM 36.8400 24.1190 113° Southeast 505 581 35,000  Level FlightAware ADS-B
Mon 06:20:17 AM 36.8060 24.2150 114° Southeast 505 581 35,000  Level FlightAware ADS-B
Mon 06:20:52 AM 36.7730 24.3090 114° Southeast 505 581 35,000  Level FlightAware ADS-B
Mon 06:21:24 AM 36.7440 24.3910 114° Southeast 505 581 35,000  Level FlightAware ADS-B
Mon 06:22:01 AM 36.7100 24.4900 113° Southeast 504 580 35,000  Level FlightAware ADS-B
Mon 06:22:36 AM 36.6770 24.5830 114° Southeast 504 580 35,000  Level FlightAware ADS-B
Mon 06:23:11 AM 36.6440 24.6760 114° Southeast 505 581 35,000  Level FlightAware ADS-B
Mon 06:23:47 AM 36.6100 24.7690 114° Southeast 505 581 35,000  Level FlightAware ADS-B
Mon 06:24:19 AM 36.5780 24.8620 113° Southeast 505 581 35,000  Level FlightAware ADS-B
Mon 06:24:58 AM 36.5410 24.9620 115° Southeast 505 581 35,000  Level FlightAware ADS-B
Mon 06:25:31 AM 36.5100 25.0500 114° Southeast 504 580 35,000  Level FlightAware ADS-B
Mon 06:26:04 AM 36.4790 25.1350 114° Southeast 505 581 35,000  Level FlightAware ADS-B
Mon 06:26:41 AM 36.4420 25.2350 115° Southeast 505 581 35,000  Level FlightAware ADS-B
Mon 06:27:19 AM 36.4060 25.3350 114° Southeast 504 580 35,000  Level FlightAware ADS-B
Mon 06:27:53 AM 36.3730 25.4280 114° Southeast 504 580 35,000  Level FlightAware ADS-B
Mon 06:28:25 AM 36.3430 25.5120 114° Southeast 503 579 35,000  Level FlightAware ADS-B
Mon 06:29:02 AM 36.3080 25.6060 115° Southeast 503 579 35,000  Level FlightAware ADS-B
Mon 06:29:33 AM 36.2770 25.6900 115° Southeast 503 579 35,000  Level FlightAware ADS-B
Mon 06:30:09 AM 36.2430 25.7830 114° Southeast 504 580 35,000  Level FlightAware ADS-B
Mon 06:30:47 AM 36.2060 25.8820 115° Southeast 504 580 35,000  Level FlightAware ADS-B
Mon 06:31:23 AM 36.1710 25.9770 115° Southeast 502 578 35,000  Level FlightAware ADS-B
Mon 06:31:56 AM 36.1400 26.0620 114° Southeast 502 578 35,000  Level FlightAware ADS-B
Mon 06:32:33 AM 36.1030 26.1590 115° Southeast 502 578 35,000  Level FlightAware ADS-B
Mon 06:33:05 AM 36.0730 26.2430 114° Southeast 502 578 35,000  Level FlightAware ADS-B
Mon 06:33:41 AM 36.0370 26.3370 115° Southeast 505 581 35,000  Level FlightAware ADS-B
Mon 06:34:07 AM 36.0110 26.4070 115° Southeast 505 581 35,000  Level FlightAware ADS-B
Mon 06:34:46 AM 35.9730 26.5070 115° Southeast 506 582 35,000  Level FlightAware ADS-B
Mon 06:35:21 AM 35.9380 26.6010 115° Southeast 506 582 35,000  Level FlightAware ADS-B
Mon 06:35:55 AM 35.9050 26.6870 115° Southeast 506 582 35,000  Level FlightAware ADS-B
Mon 06:36:43 AM 35.8580 26.8130 115° Southeast 507 583 35,000  Level FlightAware ADS-B
Mon 06:37:34 AM 35.8140 26.9290 115° Southeast 507 583 35,000  Level FlightAware ADS-B
Mon 06:38:08 AM 35.7740 27.0320 116° Southeast 506 582 35,000  Level FlightAware ADS-B
Mon 06:38:45 AM 35.7350 27.1330 115° Southeast 505 581 35,000  Level FlightAware ADS-B
Mon 06:39:21 AM 35.6990 27.2270 115° Southeast 504 580 35,000  Level FlightAware ADS-B
Mon 06:39:53 AM 35.6670 27.3090 116° Southeast 504 580 35,000  Level FlightAware ADS-B
Mon 06:40:29 AM 35.6320 27.4000 115° Southeast 504 580 35,000  Level FlightAware ADS-B
Mon 06:41:05 AM 35.5950 27.4960 115° Southeast 505 581 35,000  Level FlightAware ADS-B
Mon 06:41:37 AM 35.5630 27.5790 115° Southeast 506 582 35,000  Level FlightAware ADS-B
Mon 06:42:10 AM 35.5300 27.6620 116° Southeast 507 583 35,000  Level FlightAware ADS-B
Mon 06:42:49 AM 35.4900 27.7630 116° Southeast 506 582 35,000  Level FlightAware ADS-B
Mon 06:43:24 AM 35.4550 27.8530 115° Southeast 505 581 35,000  Level FlightAware ADS-B
Mon 06:44:01 AM 35.4170 27.9490 116° Southeast 505 581 35,000  Level FlightAware ADS-B
Mon 06:44:33 AM 35.3840 28.0340 115° Southeast 506 582 35,000  Level FlightAware ADS-B
Mon 06:45:09 AM 35.3470 28.1270 116° Southeast 505 581 35,000  Level FlightAware ADS-B
Mon 06:45:44 AM 35.3130 28.2120 116° Southeast 505 581 35,000  Level FlightAware ADS-B
Mon 06:46:22 AM 35.2810 28.2960 115° Southeast 505 581 35,000  Level FlightAware ADS-B
Mon 06:46:53 AM 35.2400 28.3950 117° Southeast 506 582 35,000  Level FlightAware ADS-B
Mon 06:47:29 AM 35.2050 28.4850 115° Southeast 507 583 35,000  Level FlightAware ADS-B
Mon 06:48:03 AM 35.1680 28.5750 117° Southeast 508 585 35,000  Level FlightAware ADS-B
Mon 06:48:39 AM 35.1320 28.6650 116° Southeast 509 586 35,000  Level FlightAware ADS-B
Mon 06:49:16 AM 35.0990 28.7450 117° Southeast 510 587 35,000  Level FlightAware ADS-B
Mon 06:49:55 AM 35.0530 28.8590 116° Southeast 510 587 35,000  Level FlightAware ADS-B
Mon 06:50:31 AM 35.0150 28.9550 116° Southeast 511 588 35,000  Level FlightAware ADS-B
Mon 06:51:07 AM 34.9780 29.0450 117° Southeast 511 588 35,000  Level FlightAware ADS-B
Mon 06:51:47 AM 34.9340 29.1500 117° Southeast 511 588 35,000  Level FlightAware ADS-B
Mon 06:52:23 AM 34.8970 29.2430 116° Southeast 511 588 35,000  Level FlightAware ADS-B
Mon 06:53:05 AM 34.8590 29.3380 116° Southeast 510 587 35,000  Level FlightAware ADS-B
Mon 06:53:41 AM 34.8150 29.4430 117° Southeast 509 586 35,000  Level FlightAware ADS-B
Mon 06:54:16 AM 34.7800 29.5280 117° Southeast 508 585 35,000  Level FlightAware ADS-B
Mon 06:54:49 AM 34.7450 29.6120 117° Southeast 507 583 35,000  Level FlightAware ADS-B
Mon 06:55:24 AM 34.7060 29.7060 117° Southeast 507 583 35,000  Level FlightAware ADS-B
Mon 06:55:59 AM 34.6670 29.7900 119° Southeast 506 582 35,000  Level FlightAware ADS-B
Mon 06:56:55 AM 34.6060 29.9160 120° Southeast 507 583 35,000  Level FlightAware ADS-B
Mon 06:57:30 AM 34.5600 30.0120 120° Southeast 506 582 35,000  Level FlightAware ADS-B
Mon 06:58:10 AM 34.5130 30.1110 120° Southeast 505 581 35,000  Level FlightAware ADS-B
Mon 06:58:55 AM 34.4600 30.2250 119° Southeast 506 582 35,000  Level FlightAware ADS-B
Mon 06:59:26 AM 34.4230 30.3020 120° Southeast 507 583 35,000  Level FlightAware ADS-B
Mon 07:00:06 AM 34.3760 30.3990 120° Southeast 507 583 35,000  Level FlightAware ADS-B
Mon 07:00:37 AM 34.3400 30.4780 119° Southeast 512 589 35,000  Level FlightAware ADS-B
Mon 07:01:12 AM 34.2980 30.5650 120° Southeast 512 589 35,000  Level FlightAware ADS-B
Mon 07:01:48 AM 34.2560 30.6520 120° Southeast 513 590 35,000  Level FlightAware ADS-B
Mon 07:02:22 AM 34.2130 30.7410 120° Southeast 513 590 35,000  Level FlightAware ADS-B
Mon 07:02:56 AM 34.1730 30.8250 120° Southeast 513 590 35,000  Level FlightAware ADS-B
Mon 07:03:37 AM 34.1230 30.9270 121° Southeast 512 589 35,000  Level FlightAware ADS-B
Mon 07:04:09 AM 34.0880 30.9980 121° Southeast 513 590 35,000  Level FlightAware ADS-B
Mon 07:04:44 AM 34.0430 31.0920 120° Southeast 512 589 35,000  Level FlightAware ADS-B
Mon 07:05:20 AM 34.0020 31.1760 120° Southeast 513 590 35,000  Level FlightAware ADS-B
Mon 07:05:50 AM 33.9650 31.2520 120° Southeast 513 590 35,000  Level FlightAware ADS-B
Mon 07:06:29 AM 33.9180 31.3480 121° Southeast 513 590 35,000  Level FlightAware ADS-B
Mon 07:07:10 AM 33.8680 31.4500 121° Southeast 515 593 35,000  Level FlightAware ADS-B
Mon 07:07:45 AM 33.8240 31.5380 121° Southeast 515 593 35,000  Level FlightAware ADS-B
Mon 07:08:21 AM 33.7820 31.6250 120° Southeast 515 593 35,000  Level FlightAware ADS-B
Mon 07:08:55 AM 33.7390 31.7130 120° Southeast 512 589 35,000  Level FlightAware ADS-B
Mon 07:09:31 AM 33.6970 31.7970 121° Southeast 513 590 35,000  Level FlightAware ADS-B
Mon 07:10:06 AM 33.6550 31.8810 121° Southeast 513 590 35,000  Level FlightAware ADS-B
Mon 07:10:41 AM 33.6120 31.9670 121° Southeast 513 590 35,000  Level FlightAware ADS-B
Mon 07:11:26 AM 33.5600 32.0740 120° Southeast 513 590 35,000  Level FlightAware ADS-B
Mon 07:11:57 AM 33.5170 32.1570 122° Southeast 517 595 35,000  Level FlightAware ADS-B
Mon 07:12:38 AM 33.4650 32.2620 121° Southeast 512 589 35,000  Level FlightAware ADS-B
Mon 07:13:14 AM 33.4210 32.3480 121° Southeast 512 589 35,000  Level FlightAware ADS-B
Mon 07:13:50 AM 33.3770 32.4360 121° Southeast 511 588 35,000  Level FlightAware ADS-B
Mon 07:14:25 AM 33.3330 32.5220 121° Southeast 512 589 35,000  Level FlightAware ADS-B
Mon 07:15:01 AM 33.2900 32.6070 121° Southeast 516 594 35,000  Level FlightAware ADS-B
Mon 07:15:33 AM 33.2490 32.6870 121° Southeast 516 594 35,000  Level FlightAware ADS-B
Mon 07:16:07 AM 33.2080 32.7680 121° Southeast 516 594 35,000 -380 Level FlightAware ADS-B
Mon 07:16:52 AM 33.1540 32.8740 121° Southeast 515 593 34,500 -805 Descending FlightAware ADS-B
Mon 07:17:29 AM 33.1050 32.9710 121° Southeast 510 587 33,900 -1,114 Descending FlightAware ADS-B
Mon 07:18:02 AM 33.0660 33.0480 121° Southeast 510 587 33,200 -2,000 Descending FlightAware ADS-B
Mon 07:18:38 AM 33.0220 33.1310 122° Southeast 505 581 31,600 -2,712 Descending FlightAware ADS-B
Mon 07:19:15 AM 32.9760 33.2200 122° Southeast 495 570 29,900 -2,174 Descending FlightAware ADS-B
Mon 07:19:47 AM 32.9380 33.2930 122° Southeast 478 550 29,100 -1,324 Descending FlightAware ADS-B
Mon 07:20:23 AM 32.8970 33.3730 121° Southeast 449 517 28,400 -1,083 Descending FlightAware ADS-B
Mon 07:20:59 AM 32.8590 33.4470 121° Southeast 424 488 27,800 -957 Descending FlightAware ADS-B
Mon 07:21:32 AM 32.8270 33.5080 122° Southeast 403 464 27,300 -1,971 Descending FlightAware ADS-B
Mon 07:22:09 AM 32.7910 33.5760 122° Southeast 391 450 25,500 -3,217 Descending FlightAware ADS-B
Mon 07:22:41 AM 32.7600 33.6370 121° Southeast 393 452 23,600 -3,176 Descending FlightAware ADS-B
Mon 07:23:17 AM 32.7270 33.7010 121° Southeast 382 440 21,900 -2,959 Descending FlightAware ADS-B
Mon 07:23:54 AM 32.6930 33.7660 122° Southeast 377 434 20,000 -3,321 Descending FlightAware ADS-B
Mon 07:24:13 AM 32.6770 33.8030 117° Southeast 378 435 18,800 -3,429 Descending FlightAware ADS-B
Mon 07:24:29 AM 32.6730 33.8340 99° East 369 425 18,000 -2,125 Descending FlightAware ADS-B
Mon 07:25:01 AM 32.6760 33.9010 87° East 370 426 17,100 -882 Descending FlightAware ADS-B
Mon 07:25:37 AM 32.6800 33.9720 86° East 361 415 17,000 -83 Descending FlightAware ADS-B
Mon 07:26:13 AM 32.6830 34.0430 87° East 359 413 17,000  Level FlightAware ADS-B
Mon 07:26:49 AM 32.6870 34.1140 86° East 358 412 17,000 -154 Level FlightAware ADS-B
Mon 07:27:31 AM 32.6810 34.1940 95° East 364 419 16,800 -667 Descending FlightAware ADS-B
Mon 07:27:43 AM 32.6700 34.2150 122° Southeast 367 422 16,400 -2,100 Descending FlightAware ADS-B
Mon 07:27:51 AM 32.6600 34.2280 132° Southeast 369 425 16,100 -2,500 Descending FlightAware ADS-B
Mon 07:28:19 AM 32.6200 34.2600 146° Southeast 360 414 14,900 -2,344 Descending FlightAware ADS-B
Mon 07:28:55 AM 32.5680 34.2870 156° South 341 392 13,600 -1,941 Descending FlightAware ADS-B
Mon 07:29:27 AM 32.5240 34.3100 156° South 313 360 12,700 -1,853 Descending FlightAware ADS-B
Mon 07:30:03 AM 32.4780 34.3320 158° South 286 329 11,500 -2,300 Descending FlightAware ADS-B
Mon 07:30:27 AM 32.4480 34.3430 163° South 279 321 10,400 -2,426 Descending FlightAware ADS-B
Mon 07:30:50 AM 32.4230 34.3360 193° South 270 311 9,600 -2,375 Descending FlightAware ADS-B
Mon 07:31:15 AM 32.3920 34.3220 201° Southwest 265 305 8,500 -2,267 Descending FlightAware ADS-B
Mon 07:31:35 AM 32.3700 34.3120 201° Southwest 262 302 7,900 -1,855 Descending FlightAware ADS-B
Mon 07:32:10 AM 32.3320 34.2960 200° South 262 302 6,800 -1,292 Descending FlightAware ADS-B
Mon 07:32:40 AM 32.2970 34.2870 192° South 262 302 6,500 -873 Descending FlightAware ADS-B
Mon 07:33:05 AM 32.3190 34.2960 19° North 261 300 6,000 -652 Descending FlightAware ADS-B
Mon 07:33:26 AM 32.2690 34.3640 131° Southeast 260 299 6,000  Level FlightAware ADS-B
Mon 07:33:45 AM 32.2600 34.3890 113° Southeast 260 299 6,000 -682 Level FlightAware ADS-B
Mon 07:34:10 AM 32.2470 34.4200 116° Southeast 253 291 5,500 -1,200 Descending FlightAware ADS-B
Mon 07:34:30 AM 32.2360 34.4490 114° Southeast 257 296 5,100 -857 Descending FlightAware ADS-B
Mon 07:34:45 AM 32.2280 34.4650 121° Southeast 257 296 5,000 -150 Descending FlightAware ADS-B
Mon 07:35:10 AM 32.2110 34.4980 121° Southeast 258 297 5,000  Level FlightAware ADS-B
Mon 07:35:36 AM 32.1970 34.5240 122° Southeast 258 297 5,000 103 Level FlightAware ADS-B
Mon 07:36:08 AM 32.1970 34.5250 90° East 255 293 5,100  Climbing FlightAware ADS-B
Mon 07:36:28 AM 32.2110 34.4980 302° West 237 273 5,000 -133 Descending FlightAware ADS-B
Mon 07:36:53 AM 32.1530 34.6090 122° Southeast 237 273 5,000  Level FlightAware ADS-B
Mon 07:37:18 AM 32.1370 34.6390 122° Southeast 237 273 5,000  Level FlightAware ADS-B
Mon 07:37:39 AM 32.1270 34.6560 125° Southeast 238 274 5,000  Level FlightAware ADS-B
Mon 07:38:17 AM 32.1060 34.6940 123° Southeast 238 274 5,000  Level FlightAware ADS-B
Mon 07:39:28 AM 32.0590 34.7760 124° Southeast 219 252 5,000 -196 Level FlightAware ADS-B
Mon 07:39:49 AM 32.0430 34.7950 135° Southeast 206 237 4,700 -421 Descending FlightAware ADS-B
Mon 07:40:25 AM 32.0210 34.8190 137° Southeast 207 238 4,600 -214 Descending FlightAware ADS-B
Mon 07:40:45 AM 32.0050 34.8380 135° Southeast 200 230 4,500 -600 Descending FlightAware ADS-B
Mon 07:41:05 AM 31.9920 34.8530 136° Southeast 196 226 4,200 -750 Descending FlightAware ADS-B
Mon 07:41:41 AM 31.9720 34.8770 134° Southeast 204 235 3,800 -1,800 Descending FlightAware ADS-B
Mon 07:41:45 AM 31.9730 34.8870 83° East 192 221 3,000 -2,483 Descending FlightAware ADS-B
Mon 07:42:10 AM 31.9760 34.9120 82° East 176 203 2,600 -800 Descending FlightAware ADS-B
Mon 07:42:30 AM 31.9810 34.9300 72° East 178 205 2,400 -750 Descending FlightAware ADS-B
Mon 07:42:50 AM 31.9850 34.9470 74° East 181 208 2,100 -800 Descending FlightAware ADS-B
Mon 07:43:00 AM 31.9900 34.9570 59° Northeast 178 205 2,000 -800 Descending FlightAware ADS-B
Mon 07:43:05 AM 31.9940 34.9610 40° Northeast 174 200 1,900 -800 Descending FlightAware ADS-B
Mon 07:43:15 AM 31.9990 34.9630 19° North 167 192 1,800 -800 Descending FlightAware ADS-B
Mon 07:43:20 AM 32.0040 34.9640 10° North 165 190 1,700 -960 Descending FlightAware ADS-B
Mon 07:43:40 AM 32.0190 34.9600 347° North 158 182 1,400 -960 Descending FlightAware ADS-B
Mon 07:43:45 AM 32.0220 34.9580 331° Northwest 157 181 1,300 -900 Descending FlightAware ADS-B
Mon 07:44:00 AM 32.0270 34.9500 306° West 155 178 1,100 -857 Descending FlightAware ADS-B
Mon 07:44:06 AM 32.0280 34.9430 280° West 156 180 1,000 -800 Descending FlightAware ADS-B
Mon 07:44:30 AM 32.0240 34.9250 255° West 153 176 700 -321 Descending FlightAware ADS-B
Mon 07:45:02 AM 32.0170 34.9040 249° West 153 176 700  Level FlightAware ADS-B

Login

Don't have an account? Register now (free) for customized features, flight alerts, and more!